<?xml version="1.0" encoding="UTF-8" standalone="no" ?>
<gpx xmlns="http://www.topografix.com/GPX/1/1" xmlns:xsi="http://www.w3.org/2001/XMLSchema-instance" xsi:schemaLocation="http://www.topografix.com/GPX/1/1 http://www.topografix.com/GPX/1/1/gpx.xsd" version="1.1" creator="VisuGPX - https://www.visugpx.com">
  <metadata>
    <name>sortie du 3/06/18</name>
    <desc><![CDATA[sortie court mais dure! que de la côte en forêt]]></desc>
  </metadata>
  <trk>
    <name><![CDATA[Tracé actuel: 03 JUIN 2018 08:13]]></name>
    <trkseg>
      <trkpt lat="43.3522" lon="-0.55329">
        <ele>122.22</ele>
        <time>2018-06-03T06:13:52Z</time>
      </trkpt>
      <trkpt lat="43.3522" lon="-0.5533">
        <ele>121.74</ele>
        <time>2018-06-03T06:14:11Z</time>
      </trkpt>
      <trkpt lat="43.3522" lon="-0.55329">
        <ele>121.74</ele>
        <time>2018-06-03T06:14:28Z</time>
      </trkpt>
      <trkpt lat="43.35222" lon="-0.55329">
        <ele>120.78</ele>
        <time>2018-06-03T06:14:49Z</time>
      </trkpt>
      <trkpt lat="43.35222" lon="-0.55328">
        <ele>120.78</ele>
        <time>2018-06-03T06:14:50Z</time>
      </trkpt>
      <trkpt lat="43.35221" lon="-0.55326">
        <ele>120.78</ele>
        <time>2018-06-03T06:14:52Z</time>
      </trkpt>
      <trkpt lat="43.35219" lon="-0.5532">
        <ele>121.74</ele>
        <time>2018-06-03T06:14:56Z</time>
      </trkpt>
      <trkpt lat="43.35218" lon="-0.55316">
        <ele>121.74</ele>
        <time>2018-06-03T06:14:57Z</time>
      </trkpt>
      <trkpt lat="43.35218" lon="-0.55313">
        <ele>122.22</ele>
        <time>2018-06-03T06:14:58Z</time>
      </trkpt>
      <trkpt lat="43.35218" lon="-0.55309">
        <ele>122.71</ele>
        <time>2018-06-03T06:14:59Z</time>
      </trkpt>
      <trkpt lat="43.35209" lon="-0.55239">
        <ele>127.03</ele>
        <time>2018-06-03T06:15:14Z</time>
      </trkpt>
      <trkpt lat="43.352" lon="-0.55217">
        <ele>127.51</ele>
        <time>2018-06-03T06:15:18Z</time>
      </trkpt>
      <trkpt lat="43.35177" lon="-0.55175">
        <ele>128.47</ele>
        <time>2018-06-03T06:15:27Z</time>
      </trkpt>
      <trkpt lat="43.35172" lon="-0.55165">
        <ele>129.43</ele>
        <time>2018-06-03T06:15:29Z</time>
      </trkpt>
      <trkpt lat="43.3516" lon="-0.55149">
        <ele>129.92</ele>
        <time>2018-06-03T06:15:33Z</time>
      </trkpt>
      <trkpt lat="43.35156" lon="-0.55145">
        <ele>129.92</ele>
        <time>2018-06-03T06:15:34Z</time>
      </trkpt>
      <trkpt lat="43.35153" lon="-0.55142">
        <ele>130.4</ele>
        <time>2018-06-03T06:15:35Z</time>
      </trkpt>
      <trkpt lat="43.35112" lon="-0.55121">
        <ele>131.36</ele>
        <time>2018-06-03T06:15:45Z</time>
      </trkpt>
      <trkpt lat="43.35108" lon="-0.5512">
        <ele>131.36</ele>
        <time>2018-06-03T06:15:46Z</time>
      </trkpt>
      <trkpt lat="43.35104" lon="-0.55118">
        <ele>131.84</ele>
        <time>2018-06-03T06:15:47Z</time>
      </trkpt>
      <trkpt lat="43.35072" lon="-0.55102">
        <ele>132.8</ele>
        <time>2018-06-03T06:15:54Z</time>
      </trkpt>
      <trkpt lat="43.35058" lon="-0.55095">
        <ele>132.8</ele>
        <time>2018-06-03T06:15:57Z</time>
      </trkpt>
      <trkpt lat="43.34998" lon="-0.55036">
        <ele>130.88</ele>
        <time>2018-06-03T06:16:11Z</time>
      </trkpt>
      <trkpt lat="43.34957" lon="-0.54965">
        <ele>130.4</ele>
        <time>2018-06-03T06:16:24Z</time>
      </trkpt>
      <trkpt lat="43.3493" lon="-0.54929">
        <ele>131.36</ele>
        <time>2018-06-03T06:16:34Z</time>
      </trkpt>
      <trkpt lat="43.34883" lon="-0.54908">
        <ele>131.36</ele>
        <time>2018-06-03T06:16:47Z</time>
      </trkpt>
      <trkpt lat="43.34835" lon="-0.54881">
        <ele>132.32</ele>
        <time>2018-06-03T06:16:59Z</time>
      </trkpt>
      <trkpt lat="43.34832" lon="-0.54874">
        <ele>132.32</ele>
        <time>2018-06-03T06:17:00Z</time>
      </trkpt>
      <trkpt lat="43.34829" lon="-0.54868">
        <ele>132.8</ele>
        <time>2018-06-03T06:17:01Z</time>
      </trkpt>
      <trkpt lat="43.34828" lon="-0.5486">
        <ele>132.8</ele>
        <time>2018-06-03T06:17:02Z</time>
      </trkpt>
      <trkpt lat="43.34827" lon="-0.54853">
        <ele>133.28</ele>
        <time>2018-06-03T06:17:03Z</time>
      </trkpt>
      <trkpt lat="43.34827" lon="-0.54848">
        <ele>133.28</ele>
        <time>2018-06-03T06:17:04Z</time>
      </trkpt>
      <trkpt lat="43.34828" lon="-0.54842">
        <ele>133.28</ele>
        <time>2018-06-03T06:17:05Z</time>
      </trkpt>
      <trkpt lat="43.34829" lon="-0.54838">
        <ele>133.28</ele>
        <time>2018-06-03T06:17:06Z</time>
      </trkpt>
      <trkpt lat="43.3483" lon="-0.54833">
        <ele>133.76</ele>
        <time>2018-06-03T06:17:07Z</time>
      </trkpt>
      <trkpt lat="43.34831" lon="-0.54829">
        <ele>133.28</ele>
        <time>2018-06-03T06:17:08Z</time>
      </trkpt>
      <trkpt lat="43.34853" lon="-0.54796">
        <ele>132.32</ele>
        <time>2018-06-03T06:17:19Z</time>
      </trkpt>
      <trkpt lat="43.34884" lon="-0.54757">
        <ele>131.84</ele>
        <time>2018-06-03T06:17:35Z</time>
      </trkpt>
      <trkpt lat="43.34903" lon="-0.54714">
        <ele>136.16</ele>
        <time>2018-06-03T06:17:48Z</time>
      </trkpt>
      <trkpt lat="43.34917" lon="-0.54669">
        <ele>142.41</ele>
        <time>2018-06-03T06:18:01Z</time>
      </trkpt>
      <trkpt lat="43.34919" lon="-0.54661">
        <ele>143.37</ele>
        <time>2018-06-03T06:18:04Z</time>
      </trkpt>
      <trkpt lat="43.34921" lon="-0.54658">
        <ele>143.37</ele>
        <time>2018-06-03T06:18:05Z</time>
      </trkpt>
      <trkpt lat="43.34945" lon="-0.54641">
        <ele>149.14</ele>
        <time>2018-06-03T06:18:18Z</time>
      </trkpt>
      <trkpt lat="43.34978" lon="-0.54634">
        <ele>155.39</ele>
        <time>2018-06-03T06:18:34Z</time>
      </trkpt>
      <trkpt lat="43.35007" lon="-0.54638">
        <ele>159.24</ele>
        <time>2018-06-03T06:18:49Z</time>
      </trkpt>
      <trkpt lat="43.35036" lon="-0.54641">
        <ele>162.6</ele>
        <time>2018-06-03T06:19:06Z</time>
      </trkpt>
      <trkpt lat="43.35067" lon="-0.54647">
        <ele>169.33</ele>
        <time>2018-06-03T06:19:26Z</time>
      </trkpt>
      <trkpt lat="43.3507" lon="-0.54648">
        <ele>170.29</ele>
        <time>2018-06-03T06:19:29Z</time>
      </trkpt>
      <trkpt lat="43.35091" lon="-0.54642">
        <ele>173.17</ele>
        <time>2018-06-03T06:19:43Z</time>
      </trkpt>
      <trkpt lat="43.35102" lon="-0.54628">
        <ele>175.1</ele>
        <time>2018-06-03T06:19:53Z</time>
      </trkpt>
      <trkpt lat="43.35123" lon="-0.54616">
        <ele>180.38</ele>
        <time>2018-06-03T06:20:09Z</time>
      </trkpt>
      <trkpt lat="43.35137" lon="-0.54599">
        <ele>191.92</ele>
        <time>2018-06-03T06:20:24Z</time>
      </trkpt>
      <trkpt lat="43.35138" lon="-0.54597">
        <ele>192.88</ele>
        <time>2018-06-03T06:20:26Z</time>
      </trkpt>
      <trkpt lat="43.35143" lon="-0.54571">
        <ele>202.49</ele>
        <time>2018-06-03T06:20:42Z</time>
      </trkpt>
      <trkpt lat="43.35144" lon="-0.5454">
        <ele>210.67</ele>
        <time>2018-06-03T06:20:56Z</time>
      </trkpt>
      <trkpt lat="43.3515" lon="-0.54505">
        <ele>214.03</ele>
        <time>2018-06-03T06:21:09Z</time>
      </trkpt>
      <trkpt lat="43.35173" lon="-0.54438">
        <ele>199.13</ele>
        <time>2018-06-03T06:21:26Z</time>
      </trkpt>
      <trkpt lat="43.35191" lon="-0.54347">
        <ele>188.56</ele>
        <time>2018-06-03T06:21:44Z</time>
      </trkpt>
      <trkpt lat="43.35194" lon="-0.54287">
        <ele>182.31</ele>
        <time>2018-06-03T06:21:56Z</time>
      </trkpt>
      <trkpt lat="43.35178" lon="-0.54214">
        <ele>183.27</ele>
        <time>2018-06-03T06:22:14Z</time>
      </trkpt>
      <trkpt lat="43.3517" lon="-0.5416">
        <ele>185.19</ele>
        <time>2018-06-03T06:22:31Z</time>
      </trkpt>
      <trkpt lat="43.35181" lon="-0.5411">
        <ele>191.92</ele>
        <time>2018-06-03T06:22:49Z</time>
      </trkpt>
      <trkpt lat="43.35185" lon="-0.54071">
        <ele>197.21</ele>
        <time>2018-06-03T06:23:07Z</time>
      </trkpt>
      <trkpt lat="43.35184" lon="-0.54068">
        <ele>198.17</ele>
        <time>2018-06-03T06:23:09Z</time>
      </trkpt>
      <trkpt lat="43.35183" lon="-0.54067">
        <ele>198.17</ele>
        <time>2018-06-03T06:23:10Z</time>
      </trkpt>
      <trkpt lat="43.35182" lon="-0.54065">
        <ele>198.65</ele>
        <time>2018-06-03T06:23:11Z</time>
      </trkpt>
      <trkpt lat="43.3518" lon="-0.54065">
        <ele>198.65</ele>
        <time>2018-06-03T06:23:12Z</time>
      </trkpt>
      <trkpt lat="43.35178" lon="-0.54064">
        <ele>199.13</ele>
        <time>2018-06-03T06:23:13Z</time>
      </trkpt>
      <trkpt lat="43.35158" lon="-0.54053">
        <ele>200.09</ele>
        <time>2018-06-03T06:23:25Z</time>
      </trkpt>
      <trkpt lat="43.3513" lon="-0.54044">
        <ele>206.34</ele>
        <time>2018-06-03T06:23:40Z</time>
      </trkpt>
      <trkpt lat="43.35097" lon="-0.54021">
        <ele>208.74</ele>
        <time>2018-06-03T06:23:51Z</time>
      </trkpt>
      <trkpt lat="43.35071" lon="-0.53977">
        <ele>210.67</ele>
        <time>2018-06-03T06:24:00Z</time>
      </trkpt>
      <trkpt lat="43.35068" lon="-0.5397">
        <ele>210.67</ele>
        <time>2018-06-03T06:24:01Z</time>
      </trkpt>
      <trkpt lat="43.35066" lon="-0.53964">
        <ele>211.15</ele>
        <time>2018-06-03T06:24:02Z</time>
      </trkpt>
      <trkpt lat="43.35059" lon="-0.53923">
        <ele>213.55</ele>
        <time>2018-06-03T06:24:11Z</time>
      </trkpt>
      <trkpt lat="43.3504" lon="-0.53859">
        <ele>220.28</ele>
        <time>2018-06-03T06:24:23Z</time>
      </trkpt>
      <trkpt lat="43.35032" lon="-0.53841">
        <ele>223.16</ele>
        <time>2018-06-03T06:24:26Z</time>
      </trkpt>
      <trkpt lat="43.35014" lon="-0.53785">
        <ele>233.74</ele>
        <time>2018-06-03T06:24:35Z</time>
      </trkpt>
      <trkpt lat="43.35014" lon="-0.53767">
        <ele>228.45</ele>
        <time>2018-06-03T06:24:39Z</time>
      </trkpt>
      <trkpt lat="43.35013" lon="-0.53764">
        <ele>224.61</ele>
        <time>2018-06-03T06:24:40Z</time>
      </trkpt>
      <trkpt lat="43.35011" lon="-0.53763">
        <ele>222.2</ele>
        <time>2018-06-03T06:24:41Z</time>
      </trkpt>
      <trkpt lat="43.35009" lon="-0.53763">
        <ele>219.32</ele>
        <time>2018-06-03T06:24:42Z</time>
      </trkpt>
      <trkpt lat="43.34979" lon="-0.53782">
        <ele>200.09</ele>
        <time>2018-06-03T06:24:51Z</time>
      </trkpt>
      <trkpt lat="43.34976" lon="-0.53785">
        <ele>198.65</ele>
        <time>2018-06-03T06:24:52Z</time>
      </trkpt>
      <trkpt lat="43.34973" lon="-0.5379">
        <ele>197.69</ele>
        <time>2018-06-03T06:24:53Z</time>
      </trkpt>
      <trkpt lat="43.34971" lon="-0.53796">
        <ele>196.73</ele>
        <time>2018-06-03T06:24:54Z</time>
      </trkpt>
      <trkpt lat="43.34969" lon="-0.53804">
        <ele>195.77</ele>
        <time>2018-06-03T06:24:55Z</time>
      </trkpt>
      <trkpt lat="43.34969" lon="-0.53813">
        <ele>194.8</ele>
        <time>2018-06-03T06:24:56Z</time>
      </trkpt>
      <trkpt lat="43.34969" lon="-0.53822">
        <ele>193.84</ele>
        <time>2018-06-03T06:24:57Z</time>
      </trkpt>
      <trkpt lat="43.34977" lon="-0.53926">
        <ele>187.59</ele>
        <time>2018-06-03T06:25:10Z</time>
      </trkpt>
      <trkpt lat="43.35001" lon="-0.54016">
        <ele>186.63</ele>
        <time>2018-06-03T06:25:24Z</time>
      </trkpt>
      <trkpt lat="43.35" lon="-0.54024">
        <ele>186.63</ele>
        <time>2018-06-03T06:25:25Z</time>
      </trkpt>
      <trkpt lat="43.34999" lon="-0.54032">
        <ele>186.63</ele>
        <time>2018-06-03T06:25:26Z</time>
      </trkpt>
      <trkpt lat="43.34995" lon="-0.54053">
        <ele>187.11</ele>
        <time>2018-06-03T06:25:29Z</time>
      </trkpt>
      <trkpt lat="43.34993" lon="-0.54062">
        <ele>186.63</ele>
        <time>2018-06-03T06:25:30Z</time>
      </trkpt>
      <trkpt lat="43.34992" lon="-0.54157">
        <ele>184.23</ele>
        <time>2018-06-03T06:25:41Z</time>
      </trkpt>
      <trkpt lat="43.34994" lon="-0.54164">
        <ele>184.23</ele>
        <time>2018-06-03T06:25:42Z</time>
      </trkpt>
      <trkpt lat="43.35007" lon="-0.54213">
        <ele>181.35</ele>
        <time>2018-06-03T06:25:48Z</time>
      </trkpt>
      <trkpt lat="43.35008" lon="-0.54222">
        <ele>180.38</ele>
        <time>2018-06-03T06:25:49Z</time>
      </trkpt>
      <trkpt lat="43.35006" lon="-0.5423">
        <ele>179.42</ele>
        <time>2018-06-03T06:25:50Z</time>
      </trkpt>
      <trkpt lat="43.35003" lon="-0.54237">
        <ele>178.46</ele>
        <time>2018-06-03T06:25:51Z</time>
      </trkpt>
      <trkpt lat="43.34998" lon="-0.54245">
        <ele>177.5</ele>
        <time>2018-06-03T06:25:52Z</time>
      </trkpt>
      <trkpt lat="43.34993" lon="-0.54252">
        <ele>176.06</ele>
        <time>2018-06-03T06:25:53Z</time>
      </trkpt>
      <trkpt lat="43.34918" lon="-0.54351">
        <ele>163.08</ele>
        <time>2018-06-03T06:26:04Z</time>
      </trkpt>
      <trkpt lat="43.34911" lon="-0.54359">
        <ele>162.6</ele>
        <time>2018-06-03T06:26:05Z</time>
      </trkpt>
      <trkpt lat="43.34903" lon="-0.54365">
        <ele>161.64</ele>
        <time>2018-06-03T06:26:06Z</time>
      </trkpt>
      <trkpt lat="43.34895" lon="-0.54368">
        <ele>161.16</ele>
        <time>2018-06-03T06:26:07Z</time>
      </trkpt>
      <trkpt lat="43.3487" lon="-0.54374">
        <ele>159.24</ele>
        <time>2018-06-03T06:26:10Z</time>
      </trkpt>
      <trkpt lat="43.34862" lon="-0.54378">
        <ele>158.75</ele>
        <time>2018-06-03T06:26:11Z</time>
      </trkpt>
      <trkpt lat="43.34855" lon="-0.54383">
        <ele>158.27</ele>
        <time>2018-06-03T06:26:12Z</time>
      </trkpt>
      <trkpt lat="43.34847" lon="-0.54389">
        <ele>157.79</ele>
        <time>2018-06-03T06:26:13Z</time>
      </trkpt>
      <trkpt lat="43.3484" lon="-0.54395">
        <ele>157.79</ele>
        <time>2018-06-03T06:26:14Z</time>
      </trkpt>
      <trkpt lat="43.34777" lon="-0.54472">
        <ele>153.95</ele>
        <time>2018-06-03T06:26:24Z</time>
      </trkpt>
      <trkpt lat="43.34696" lon="-0.54567">
        <ele>147.7</ele>
        <time>2018-06-03T06:26:35Z</time>
      </trkpt>
      <trkpt lat="43.34657" lon="-0.54618">
        <ele>142.41</ele>
        <time>2018-06-03T06:26:43Z</time>
      </trkpt>
      <trkpt lat="43.34655" lon="-0.54617">
        <ele>141.93</ele>
        <time>2018-06-03T06:26:44Z</time>
      </trkpt>
      <trkpt lat="43.34654" lon="-0.54615">
        <ele>141.45</ele>
        <time>2018-06-03T06:26:45Z</time>
      </trkpt>
      <trkpt lat="43.34654" lon="-0.54613">
        <ele>141.45</ele>
        <time>2018-06-03T06:26:46Z</time>
      </trkpt>
      <trkpt lat="43.34654" lon="-0.54609">
        <ele>140.97</ele>
        <time>2018-06-03T06:26:47Z</time>
      </trkpt>
      <trkpt lat="43.34654" lon="-0.54605">
        <ele>140.49</ele>
        <time>2018-06-03T06:26:48Z</time>
      </trkpt>
      <trkpt lat="43.34651" lon="-0.54543">
        <ele>145.78</ele>
        <time>2018-06-03T06:27:01Z</time>
      </trkpt>
      <trkpt lat="43.34647" lon="-0.5449">
        <ele>156.35</ele>
        <time>2018-06-03T06:27:12Z</time>
      </trkpt>
      <trkpt lat="43.34652" lon="-0.54455">
        <ele>161.64</ele>
        <time>2018-06-03T06:27:17Z</time>
      </trkpt>
      <trkpt lat="43.34653" lon="-0.54447">
        <ele>162.6</ele>
        <time>2018-06-03T06:27:18Z</time>
      </trkpt>
      <trkpt lat="43.34652" lon="-0.54441">
        <ele>163.56</ele>
        <time>2018-06-03T06:27:19Z</time>
      </trkpt>
      <trkpt lat="43.34651" lon="-0.54434">
        <ele>164.52</ele>
        <time>2018-06-03T06:27:20Z</time>
      </trkpt>
      <trkpt lat="43.3465" lon="-0.54429">
        <ele>165.48</ele>
        <time>2018-06-03T06:27:21Z</time>
      </trkpt>
      <trkpt lat="43.34657" lon="-0.54397">
        <ele>171.25</ele>
        <time>2018-06-03T06:27:30Z</time>
      </trkpt>
      <trkpt lat="43.34664" lon="-0.54363">
        <ele>180.38</ele>
        <time>2018-06-03T06:27:43Z</time>
      </trkpt>
      <trkpt lat="43.34665" lon="-0.54358">
        <ele>182.31</ele>
        <time>2018-06-03T06:27:46Z</time>
      </trkpt>
      <trkpt lat="43.34669" lon="-0.54334">
        <ele>190.48</ele>
        <time>2018-06-03T06:27:59Z</time>
      </trkpt>
      <trkpt lat="43.34678" lon="-0.54302">
        <ele>193.36</ele>
        <time>2018-06-03T06:28:14Z</time>
      </trkpt>
      <trkpt lat="43.34684" lon="-0.54285">
        <ele>191.92</ele>
        <time>2018-06-03T06:28:20Z</time>
      </trkpt>
      <trkpt lat="43.34684" lon="-0.54265">
        <ele>194.32</ele>
        <time>2018-06-03T06:28:30Z</time>
      </trkpt>
      <trkpt lat="43.34685" lon="-0.54262">
        <ele>193.84</ele>
        <time>2018-06-03T06:28:31Z</time>
      </trkpt>
      <trkpt lat="43.34687" lon="-0.54248">
        <ele>189.52</ele>
        <time>2018-06-03T06:28:44Z</time>
      </trkpt>
      <trkpt lat="43.34686" lon="-0.54247">
        <ele>189.04</ele>
        <time>2018-06-03T06:28:45Z</time>
      </trkpt>
      <trkpt lat="43.3468" lon="-0.54241">
        <ele>190.96</ele>
        <time>2018-06-03T06:29:02Z</time>
      </trkpt>
      <trkpt lat="43.34663" lon="-0.54246">
        <ele>195.28</ele>
        <time>2018-06-03T06:29:21Z</time>
      </trkpt>
      <trkpt lat="43.34643" lon="-0.54255">
        <ele>202.01</ele>
        <time>2018-06-03T06:29:38Z</time>
      </trkpt>
      <trkpt lat="43.34617" lon="-0.54262">
        <ele>204.42</ele>
        <time>2018-06-03T06:29:54Z</time>
      </trkpt>
      <trkpt lat="43.34588" lon="-0.5426">
        <ele>197.21</ele>
        <time>2018-06-03T06:30:04Z</time>
      </trkpt>
      <trkpt lat="43.34572" lon="-0.54255">
        <ele>190.48</ele>
        <time>2018-06-03T06:30:09Z</time>
      </trkpt>
      <trkpt lat="43.34559" lon="-0.5425">
        <ele>189.04</ele>
        <time>2018-06-03T06:30:14Z</time>
      </trkpt>
      <trkpt lat="43.34553" lon="-0.54247">
        <ele>188.56</ele>
        <time>2018-06-03T06:30:17Z</time>
      </trkpt>
      <trkpt lat="43.34551" lon="-0.54245">
        <ele>189.52</ele>
        <time>2018-06-03T06:30:19Z</time>
      </trkpt>
      <trkpt lat="43.34554" lon="-0.54234">
        <ele>193.36</ele>
        <time>2018-06-03T06:30:26Z</time>
      </trkpt>
      <trkpt lat="43.34557" lon="-0.54228">
        <ele>195.77</ele>
        <time>2018-06-03T06:30:30Z</time>
      </trkpt>
      <trkpt lat="43.34564" lon="-0.5421">
        <ele>201.53</ele>
        <time>2018-06-03T06:30:41Z</time>
      </trkpt>
      <trkpt lat="43.3456" lon="-0.54199">
        <ele>202.49</ele>
        <time>2018-06-03T06:30:46Z</time>
      </trkpt>
      <trkpt lat="43.34554" lon="-0.54184">
        <ele>201.53</ele>
        <time>2018-06-03T06:30:55Z</time>
      </trkpt>
      <trkpt lat="43.34549" lon="-0.54178">
        <ele>201.53</ele>
        <time>2018-06-03T06:31:00Z</time>
      </trkpt>
      <trkpt lat="43.34529" lon="-0.54163">
        <ele>202.98</ele>
        <time>2018-06-03T06:31:15Z</time>
      </trkpt>
      <trkpt lat="43.34523" lon="-0.54159">
        <ele>203.46</ele>
        <time>2018-06-03T06:31:20Z</time>
      </trkpt>
      <trkpt lat="43.34512" lon="-0.54152">
        <ele>202.98</ele>
        <time>2018-06-03T06:31:27Z</time>
      </trkpt>
      <trkpt lat="43.34506" lon="-0.54147">
        <ele>202.49</ele>
        <time>2018-06-03T06:31:31Z</time>
      </trkpt>
      <trkpt lat="43.34502" lon="-0.54145">
        <ele>202.49</ele>
        <time>2018-06-03T06:31:33Z</time>
      </trkpt>
      <trkpt lat="43.34472" lon="-0.54117">
        <ele>201.05</ele>
        <time>2018-06-03T06:31:50Z</time>
      </trkpt>
      <trkpt lat="43.34466" lon="-0.5411">
        <ele>199.61</ele>
        <time>2018-06-03T06:31:54Z</time>
      </trkpt>
      <trkpt lat="43.34465" lon="-0.54099">
        <ele>202.49</ele>
        <time>2018-06-03T06:32:01Z</time>
      </trkpt>
      <trkpt lat="43.34476" lon="-0.54076">
        <ele>208.26</ele>
        <time>2018-06-03T06:32:17Z</time>
      </trkpt>
      <trkpt lat="43.3448" lon="-0.54073">
        <ele>209.7</ele>
        <time>2018-06-03T06:32:21Z</time>
      </trkpt>
      <trkpt lat="43.34486" lon="-0.54065">
        <ele>213.07</ele>
        <time>2018-06-03T06:32:27Z</time>
      </trkpt>
      <trkpt lat="43.34498" lon="-0.54038">
        <ele>220.28</ele>
        <time>2018-06-03T06:32:41Z</time>
      </trkpt>
      <trkpt lat="43.34507" lon="-0.54015">
        <ele>218.84</ele>
        <time>2018-06-03T06:32:51Z</time>
      </trkpt>
      <trkpt lat="43.34505" lon="-0.53992">
        <ele>226.05</ele>
        <time>2018-06-03T06:33:08Z</time>
      </trkpt>
      <trkpt lat="43.34502" lon="-0.53956">
        <ele>232.3</ele>
        <time>2018-06-03T06:33:28Z</time>
      </trkpt>
      <trkpt lat="43.34507" lon="-0.5392">
        <ele>231.81</ele>
        <time>2018-06-03T06:33:43Z</time>
      </trkpt>
      <trkpt lat="43.34505" lon="-0.53909">
        <ele>230.85</ele>
        <time>2018-06-03T06:33:47Z</time>
      </trkpt>
      <trkpt lat="43.34502" lon="-0.53862">
        <ele>229.89</ele>
        <time>2018-06-03T06:34:03Z</time>
      </trkpt>
      <trkpt lat="43.34503" lon="-0.53847">
        <ele>232.78</ele>
        <time>2018-06-03T06:34:10Z</time>
      </trkpt>
      <trkpt lat="43.34503" lon="-0.53842">
        <ele>233.26</ele>
        <time>2018-06-03T06:34:12Z</time>
      </trkpt>
      <trkpt lat="43.34505" lon="-0.5383">
        <ele>235.18</ele>
        <time>2018-06-03T06:34:16Z</time>
      </trkpt>
      <trkpt lat="43.34512" lon="-0.53804">
        <ele>236.62</ele>
        <time>2018-06-03T06:34:24Z</time>
      </trkpt>
      <trkpt lat="43.34525" lon="-0.53766">
        <ele>237.58</ele>
        <time>2018-06-03T06:34:39Z</time>
      </trkpt>
      <trkpt lat="43.34538" lon="-0.53723">
        <ele>239.02</ele>
        <time>2018-06-03T06:34:54Z</time>
      </trkpt>
      <trkpt lat="43.34546" lon="-0.53697">
        <ele>242.39</ele>
        <time>2018-06-03T06:35:08Z</time>
      </trkpt>
      <trkpt lat="43.34551" lon="-0.53685">
        <ele>247.68</ele>
        <time>2018-06-03T06:35:17Z</time>
      </trkpt>
      <trkpt lat="43.34588" lon="-0.53649">
        <ele>254.41</ele>
        <time>2018-06-03T06:35:31Z</time>
      </trkpt>
      <trkpt lat="43.34592" lon="-0.53643">
        <ele>254.89</ele>
        <time>2018-06-03T06:35:32Z</time>
      </trkpt>
      <trkpt lat="43.34595" lon="-0.53638">
        <ele>255.37</ele>
        <time>2018-06-03T06:35:33Z</time>
      </trkpt>
      <trkpt lat="43.346" lon="-0.53626">
        <ele>256.81</ele>
        <time>2018-06-03T06:35:35Z</time>
      </trkpt>
      <trkpt lat="43.34602" lon="-0.5362">
        <ele>257.29</ele>
        <time>2018-06-03T06:35:36Z</time>
      </trkpt>
      <trkpt lat="43.34623" lon="-0.53529">
        <ele>260.65</ele>
        <time>2018-06-03T06:35:45Z</time>
      </trkpt>
      <trkpt lat="43.3465" lon="-0.53461">
        <ele>261.14</ele>
        <time>2018-06-03T06:35:51Z</time>
      </trkpt>
      <trkpt lat="43.34654" lon="-0.5345">
        <ele>260.65</ele>
        <time>2018-06-03T06:35:52Z</time>
      </trkpt>
      <trkpt lat="43.34687" lon="-0.53339">
        <ele>251.04</ele>
        <time>2018-06-03T06:36:02Z</time>
      </trkpt>
      <trkpt lat="43.34691" lon="-0.53331">
        <ele>249.6</ele>
        <time>2018-06-03T06:36:03Z</time>
      </trkpt>
      <trkpt lat="43.3472" lon="-0.53263">
        <ele>237.1</ele>
        <time>2018-06-03T06:36:14Z</time>
      </trkpt>
      <trkpt lat="43.34739" lon="-0.53232">
        <ele>229.89</ele>
        <time>2018-06-03T06:36:19Z</time>
      </trkpt>
      <trkpt lat="43.34742" lon="-0.53225">
        <ele>228.45</ele>
        <time>2018-06-03T06:36:20Z</time>
      </trkpt>
      <trkpt lat="43.34744" lon="-0.53219">
        <ele>227.01</ele>
        <time>2018-06-03T06:36:21Z</time>
      </trkpt>
      <trkpt lat="43.34746" lon="-0.53213">
        <ele>225.57</ele>
        <time>2018-06-03T06:36:22Z</time>
      </trkpt>
      <trkpt lat="43.34747" lon="-0.53207">
        <ele>224.61</ele>
        <time>2018-06-03T06:36:23Z</time>
      </trkpt>
      <trkpt lat="43.34751" lon="-0.53161">
        <ele>215.95</ele>
        <time>2018-06-03T06:36:35Z</time>
      </trkpt>
      <trkpt lat="43.3474" lon="-0.53135">
        <ele>214.03</ele>
        <time>2018-06-03T06:36:47Z</time>
      </trkpt>
      <trkpt lat="43.34728" lon="-0.53105">
        <ele>216.43</ele>
        <time>2018-06-03T06:37:01Z</time>
      </trkpt>
      <trkpt lat="43.34711" lon="-0.53087">
        <ele>219.32</ele>
        <time>2018-06-03T06:37:14Z</time>
      </trkpt>
      <trkpt lat="43.34687" lon="-0.53064">
        <ele>226.53</ele>
        <time>2018-06-03T06:37:28Z</time>
      </trkpt>
      <trkpt lat="43.34674" lon="-0.53041">
        <ele>238.06</ele>
        <time>2018-06-03T06:37:42Z</time>
      </trkpt>
      <trkpt lat="43.34664" lon="-0.53008">
        <ele>251.52</ele>
        <time>2018-06-03T06:37:57Z</time>
      </trkpt>
      <trkpt lat="43.3465" lon="-0.52987">
        <ele>264.02</ele>
        <time>2018-06-03T06:38:09Z</time>
      </trkpt>
      <trkpt lat="43.34637" lon="-0.52977">
        <ele>270.75</ele>
        <time>2018-06-03T06:38:15Z</time>
      </trkpt>
      <trkpt lat="43.34619" lon="-0.52959">
        <ele>273.63</ele>
        <time>2018-06-03T06:38:22Z</time>
      </trkpt>
      <trkpt lat="43.34611" lon="-0.52947">
        <ele>279.4</ele>
        <time>2018-06-03T06:38:28Z</time>
      </trkpt>
      <trkpt lat="43.34587" lon="-0.5292">
        <ele>293.34</ele>
        <time>2018-06-03T06:38:43Z</time>
      </trkpt>
      <trkpt lat="43.34543" lon="-0.52881">
        <ele>291.42</ele>
        <time>2018-06-03T06:38:51Z</time>
      </trkpt>
      <trkpt lat="43.34505" lon="-0.52858">
        <ele>283.73</ele>
        <time>2018-06-03T06:39:01Z</time>
      </trkpt>
      <trkpt lat="43.34475" lon="-0.52824">
        <ele>277.96</ele>
        <time>2018-06-03T06:39:16Z</time>
      </trkpt>
      <trkpt lat="43.34463" lon="-0.52787">
        <ele>280.36</ele>
        <time>2018-06-03T06:39:27Z</time>
      </trkpt>
      <trkpt lat="43.34447" lon="-0.5273">
        <ele>277</ele>
        <time>2018-06-03T06:39:42Z</time>
      </trkpt>
      <trkpt lat="43.34435" lon="-0.52703">
        <ele>271.71</ele>
        <time>2018-06-03T06:39:51Z</time>
      </trkpt>
      <trkpt lat="43.34426" lon="-0.52682">
        <ele>269.31</ele>
        <time>2018-06-03T06:40:04Z</time>
      </trkpt>
      <trkpt lat="43.34411" lon="-0.52653">
        <ele>265.46</ele>
        <time>2018-06-03T06:40:14Z</time>
      </trkpt>
      <trkpt lat="43.34409" lon="-0.52649">
        <ele>264.98</ele>
        <time>2018-06-03T06:40:15Z</time>
      </trkpt>
      <trkpt lat="43.34408" lon="-0.52644">
        <ele>264.98</ele>
        <time>2018-06-03T06:40:16Z</time>
      </trkpt>
      <trkpt lat="43.34407" lon="-0.5264">
        <ele>264.02</ele>
        <time>2018-06-03T06:40:18Z</time>
      </trkpt>
      <trkpt lat="43.34398" lon="-0.52609">
        <ele>249.6</ele>
        <time>2018-06-03T06:40:30Z</time>
      </trkpt>
      <trkpt lat="43.34376" lon="-0.52569">
        <ele>252</ele>
        <time>2018-06-03T06:40:43Z</time>
      </trkpt>
      <trkpt lat="43.34368" lon="-0.52535">
        <ele>249.12</ele>
        <time>2018-06-03T06:40:57Z</time>
      </trkpt>
      <trkpt lat="43.34366" lon="-0.52532">
        <ele>248.16</ele>
        <time>2018-06-03T06:40:58Z</time>
      </trkpt>
      <trkpt lat="43.34363" lon="-0.52528">
        <ele>246.23</ele>
        <time>2018-06-03T06:40:59Z</time>
      </trkpt>
      <trkpt lat="43.3436" lon="-0.52524">
        <ele>244.31</ele>
        <time>2018-06-03T06:41:00Z</time>
      </trkpt>
      <trkpt lat="43.34358" lon="-0.5252">
        <ele>241.91</ele>
        <time>2018-06-03T06:41:01Z</time>
      </trkpt>
      <trkpt lat="43.34327" lon="-0.52486">
        <ele>225.57</ele>
        <time>2018-06-03T06:41:15Z</time>
      </trkpt>
      <trkpt lat="43.34294" lon="-0.52454">
        <ele>225.09</ele>
        <time>2018-06-03T06:41:28Z</time>
      </trkpt>
      <trkpt lat="43.34286" lon="-0.52444">
        <ele>226.53</ele>
        <time>2018-06-03T06:41:35Z</time>
      </trkpt>
      <trkpt lat="43.34285" lon="-0.52442">
        <ele>226.53</ele>
        <time>2018-06-03T06:41:36Z</time>
      </trkpt>
      <trkpt lat="43.34283" lon="-0.52439">
        <ele>226.53</ele>
        <time>2018-06-03T06:41:37Z</time>
      </trkpt>
      <trkpt lat="43.34272" lon="-0.52404">
        <ele>231.81</ele>
        <time>2018-06-03T06:41:50Z</time>
      </trkpt>
      <trkpt lat="43.3425" lon="-0.52368">
        <ele>235.18</ele>
        <time>2018-06-03T06:42:06Z</time>
      </trkpt>
      <trkpt lat="43.34231" lon="-0.52343">
        <ele>238.54</ele>
        <time>2018-06-03T06:42:20Z</time>
      </trkpt>
      <trkpt lat="43.34227" lon="-0.5234">
        <ele>239.02</ele>
        <time>2018-06-03T06:42:22Z</time>
      </trkpt>
      <trkpt lat="43.34226" lon="-0.52338">
        <ele>239.51</ele>
        <time>2018-06-03T06:42:23Z</time>
      </trkpt>
      <trkpt lat="43.34223" lon="-0.52336">
        <ele>239.51</ele>
        <time>2018-06-03T06:42:24Z</time>
      </trkpt>
      <trkpt lat="43.34188" lon="-0.52303">
        <ele>241.43</ele>
        <time>2018-06-03T06:42:42Z</time>
      </trkpt>
      <trkpt lat="43.34157" lon="-0.52283">
        <ele>239.02</ele>
        <time>2018-06-03T06:42:58Z</time>
      </trkpt>
      <trkpt lat="43.34125" lon="-0.52265">
        <ele>229.41</ele>
        <time>2018-06-03T06:43:11Z</time>
      </trkpt>
      <trkpt lat="43.34117" lon="-0.52259">
        <ele>228.93</ele>
        <time>2018-06-03T06:43:13Z</time>
      </trkpt>
      <trkpt lat="43.34106" lon="-0.52247">
        <ele>227.97</ele>
        <time>2018-06-03T06:43:16Z</time>
      </trkpt>
      <trkpt lat="43.341" lon="-0.52243">
        <ele>227.49</ele>
        <time>2018-06-03T06:43:17Z</time>
      </trkpt>
      <trkpt lat="43.34091" lon="-0.52239">
        <ele>226.53</ele>
        <time>2018-06-03T06:43:19Z</time>
      </trkpt>
      <trkpt lat="43.34046" lon="-0.52216">
        <ele>226.53</ele>
        <time>2018-06-03T06:43:30Z</time>
      </trkpt>
      <trkpt lat="43.34029" lon="-0.52208">
        <ele>226.05</ele>
        <time>2018-06-03T06:43:37Z</time>
      </trkpt>
      <trkpt lat="43.34037" lon="-0.52236">
        <ele>225.09</ele>
        <time>2018-06-03T06:43:45Z</time>
      </trkpt>
      <trkpt lat="43.34047" lon="-0.52258">
        <ele>223.64</ele>
        <time>2018-06-03T06:43:48Z</time>
      </trkpt>
      <trkpt lat="43.34055" lon="-0.52269">
        <ele>223.16</ele>
        <time>2018-06-03T06:43:50Z</time>
      </trkpt>
      <trkpt lat="43.34077" lon="-0.52291">
        <ele>220.76</ele>
        <time>2018-06-03T06:43:59Z</time>
      </trkpt>
      <trkpt lat="43.3408" lon="-0.52299">
        <ele>221.72</ele>
        <time>2018-06-03T06:44:03Z</time>
      </trkpt>
      <trkpt lat="43.34081" lon="-0.52301">
        <ele>221.72</ele>
        <time>2018-06-03T06:44:04Z</time>
      </trkpt>
      <trkpt lat="43.34082" lon="-0.52303">
        <ele>222.2</ele>
        <time>2018-06-03T06:44:05Z</time>
      </trkpt>
      <trkpt lat="43.34083" lon="-0.52305">
        <ele>222.2</ele>
        <time>2018-06-03T06:44:06Z</time>
      </trkpt>
      <trkpt lat="43.34084" lon="-0.52308">
        <ele>222.68</ele>
        <time>2018-06-03T06:44:07Z</time>
      </trkpt>
      <trkpt lat="43.34093" lon="-0.52344">
        <ele>227.49</ele>
        <time>2018-06-03T06:44:20Z</time>
      </trkpt>
      <trkpt lat="43.34112" lon="-0.52391">
        <ele>230.37</ele>
        <time>2018-06-03T06:44:34Z</time>
      </trkpt>
      <trkpt lat="43.34128" lon="-0.52446">
        <ele>230.85</ele>
        <time>2018-06-03T06:44:48Z</time>
      </trkpt>
      <trkpt lat="43.34147" lon="-0.52495">
        <ele>232.78</ele>
        <time>2018-06-03T06:45:01Z</time>
      </trkpt>
      <trkpt lat="43.34148" lon="-0.52502">
        <ele>232.78</ele>
        <time>2018-06-03T06:45:03Z</time>
      </trkpt>
      <trkpt lat="43.34149" lon="-0.52517">
        <ele>230.85</ele>
        <time>2018-06-03T06:45:07Z</time>
      </trkpt>
      <trkpt lat="43.3415" lon="-0.52524">
        <ele>228.93</ele>
        <time>2018-06-03T06:45:08Z</time>
      </trkpt>
      <trkpt lat="43.34149" lon="-0.52532">
        <ele>227.49</ele>
        <time>2018-06-03T06:45:09Z</time>
      </trkpt>
      <trkpt lat="43.34147" lon="-0.52538">
        <ele>226.05</ele>
        <time>2018-06-03T06:45:10Z</time>
      </trkpt>
      <trkpt lat="43.34144" lon="-0.52542">
        <ele>225.09</ele>
        <time>2018-06-03T06:45:11Z</time>
      </trkpt>
      <trkpt lat="43.34099" lon="-0.52593">
        <ele>217.4</ele>
        <time>2018-06-03T06:45:25Z</time>
      </trkpt>
      <trkpt lat="43.34067" lon="-0.52615">
        <ele>213.55</ele>
        <time>2018-06-03T06:45:39Z</time>
      </trkpt>
      <trkpt lat="43.34043" lon="-0.5264">
        <ele>220.76</ele>
        <time>2018-06-03T06:45:52Z</time>
      </trkpt>
      <trkpt lat="43.34027" lon="-0.52681">
        <ele>230.85</ele>
        <time>2018-06-03T06:46:05Z</time>
      </trkpt>
      <trkpt lat="43.34009" lon="-0.52732">
        <ele>233.74</ele>
        <time>2018-06-03T06:46:19Z</time>
      </trkpt>
      <trkpt lat="43.33987" lon="-0.52781">
        <ele>229.89</ele>
        <time>2018-06-03T06:46:29Z</time>
      </trkpt>
      <trkpt lat="43.33961" lon="-0.52885">
        <ele>220.28</ele>
        <time>2018-06-03T06:46:41Z</time>
      </trkpt>
      <trkpt lat="43.33952" lon="-0.52941">
        <ele>215.95</ele>
        <time>2018-06-03T06:46:48Z</time>
      </trkpt>
      <trkpt lat="43.33951" lon="-0.52948">
        <ele>215.47</ele>
        <time>2018-06-03T06:46:49Z</time>
      </trkpt>
      <trkpt lat="43.33961" lon="-0.53026">
        <ele>213.55</ele>
        <time>2018-06-03T06:47:03Z</time>
      </trkpt>
      <trkpt lat="43.33968" lon="-0.53102">
        <ele>214.03</ele>
        <time>2018-06-03T06:47:17Z</time>
      </trkpt>
      <trkpt lat="43.33988" lon="-0.53141">
        <ele>217.88</ele>
        <time>2018-06-03T06:47:30Z</time>
      </trkpt>
      <trkpt lat="43.33996" lon="-0.5315">
        <ele>219.8</ele>
        <time>2018-06-03T06:47:36Z</time>
      </trkpt>
      <trkpt lat="43.33997" lon="-0.53152">
        <ele>220.28</ele>
        <time>2018-06-03T06:47:37Z</time>
      </trkpt>
      <trkpt lat="43.33997" lon="-0.53155">
        <ele>220.28</ele>
        <time>2018-06-03T06:47:38Z</time>
      </trkpt>
      <trkpt lat="43.33997" lon="-0.53158">
        <ele>220.76</ele>
        <time>2018-06-03T06:47:39Z</time>
      </trkpt>
      <trkpt lat="43.33996" lon="-0.53163">
        <ele>220.76</ele>
        <time>2018-06-03T06:47:40Z</time>
      </trkpt>
      <trkpt lat="43.33996" lon="-0.53168">
        <ele>220.76</ele>
        <time>2018-06-03T06:47:41Z</time>
      </trkpt>
      <trkpt lat="43.33983" lon="-0.532">
        <ele>220.76</ele>
        <time>2018-06-03T06:47:51Z</time>
      </trkpt>
      <trkpt lat="43.3395" lon="-0.53212">
        <ele>220.76</ele>
        <time>2018-06-03T06:48:02Z</time>
      </trkpt>
      <trkpt lat="43.3392" lon="-0.53211">
        <ele>215.95</ele>
        <time>2018-06-03T06:48:14Z</time>
      </trkpt>
      <trkpt lat="43.3391" lon="-0.53209">
        <ele>216.43</ele>
        <time>2018-06-03T06:48:21Z</time>
      </trkpt>
      <trkpt lat="43.33896" lon="-0.53214">
        <ele>215.95</ele>
        <time>2018-06-03T06:48:29Z</time>
      </trkpt>
      <trkpt lat="43.33869" lon="-0.532">
        <ele>214.51</ele>
        <time>2018-06-03T06:48:45Z</time>
      </trkpt>
      <trkpt lat="43.3386" lon="-0.53191">
        <ele>214.99</ele>
        <time>2018-06-03T06:48:52Z</time>
      </trkpt>
      <trkpt lat="43.33836" lon="-0.53183">
        <ele>214.03</ele>
        <time>2018-06-03T06:49:02Z</time>
      </trkpt>
      <trkpt lat="43.3382" lon="-0.5318">
        <ele>212.59</ele>
        <time>2018-06-03T06:49:08Z</time>
      </trkpt>
      <trkpt lat="43.33797" lon="-0.53172">
        <ele>210.67</ele>
        <time>2018-06-03T06:49:15Z</time>
      </trkpt>
      <trkpt lat="43.33788" lon="-0.53176">
        <ele>209.7</ele>
        <time>2018-06-03T06:49:19Z</time>
      </trkpt>
      <trkpt lat="43.33781" lon="-0.53182">
        <ele>208.74</ele>
        <time>2018-06-03T06:49:21Z</time>
      </trkpt>
      <trkpt lat="43.33753" lon="-0.53175">
        <ele>207.3</ele>
        <time>2018-06-03T06:49:27Z</time>
      </trkpt>
      <trkpt lat="43.33741" lon="-0.53165">
        <ele>206.82</ele>
        <time>2018-06-03T06:49:30Z</time>
      </trkpt>
      <trkpt lat="43.33691" lon="-0.53157">
        <ele>200.57</ele>
        <time>2018-06-03T06:49:41Z</time>
      </trkpt>
      <trkpt lat="43.33645" lon="-0.53172">
        <ele>194.8</ele>
        <time>2018-06-03T06:49:52Z</time>
      </trkpt>
      <trkpt lat="43.33642" lon="-0.53174">
        <ele>194.32</ele>
        <time>2018-06-03T06:49:53Z</time>
      </trkpt>
      <trkpt lat="43.33634" lon="-0.5318">
        <ele>192.4</ele>
        <time>2018-06-03T06:49:56Z</time>
      </trkpt>
      <trkpt lat="43.3362" lon="-0.53178">
        <ele>190.48</ele>
        <time>2018-06-03T06:50:01Z</time>
      </trkpt>
      <trkpt lat="43.33579" lon="-0.53177">
        <ele>187.59</ele>
        <time>2018-06-03T06:50:12Z</time>
      </trkpt>
      <trkpt lat="43.33545" lon="-0.53199">
        <ele>184.23</ele>
        <time>2018-06-03T06:50:24Z</time>
      </trkpt>
      <trkpt lat="43.33526" lon="-0.53211">
        <ele>183.27</ele>
        <time>2018-06-03T06:50:36Z</time>
      </trkpt>
      <trkpt lat="43.33492" lon="-0.53233">
        <ele>162.6</ele>
        <time>2018-06-03T06:51:01Z</time>
      </trkpt>
      <trkpt lat="43.33489" lon="-0.53231">
        <ele>153.47</ele>
        <time>2018-06-03T06:51:24Z</time>
      </trkpt>
      <trkpt lat="43.33489" lon="-0.53229">
        <ele>153.47</ele>
        <time>2018-06-03T06:51:27Z</time>
      </trkpt>
      <trkpt lat="43.33508" lon="-0.53225">
        <ele>156.83</ele>
        <time>2018-06-03T06:51:43Z</time>
      </trkpt>
      <trkpt lat="43.33529" lon="-0.53224">
        <ele>162.6</ele>
        <time>2018-06-03T06:52:00Z</time>
      </trkpt>
      <trkpt lat="43.3353" lon="-0.53224">
        <ele>162.6</ele>
        <time>2018-06-03T06:52:01Z</time>
      </trkpt>
      <trkpt lat="43.33556" lon="-0.53225">
        <ele>169.33</ele>
        <time>2018-06-03T06:52:20Z</time>
      </trkpt>
      <trkpt lat="43.33566" lon="-0.53226">
        <ele>172.69</ele>
        <time>2018-06-03T06:52:27Z</time>
      </trkpt>
      <trkpt lat="43.33582" lon="-0.53226">
        <ele>178.94</ele>
        <time>2018-06-03T06:52:41Z</time>
      </trkpt>
      <trkpt lat="43.33602" lon="-0.53229">
        <ele>183.75</ele>
        <time>2018-06-03T06:52:57Z</time>
      </trkpt>
      <trkpt lat="43.33622" lon="-0.53233">
        <ele>186.15</ele>
        <time>2018-06-03T06:53:11Z</time>
      </trkpt>
      <trkpt lat="43.33642" lon="-0.53249">
        <ele>190.48</ele>
        <time>2018-06-03T06:53:25Z</time>
      </trkpt>
      <trkpt lat="43.33678" lon="-0.53278">
        <ele>189.52</ele>
        <time>2018-06-03T06:53:46Z</time>
      </trkpt>
      <trkpt lat="43.33698" lon="-0.53293">
        <ele>190</ele>
        <time>2018-06-03T06:54:02Z</time>
      </trkpt>
      <trkpt lat="43.33711" lon="-0.53293">
        <ele>194.32</ele>
        <time>2018-06-03T06:54:16Z</time>
      </trkpt>
      <trkpt lat="43.33727" lon="-0.53293">
        <ele>197.69</ele>
        <time>2018-06-03T06:54:27Z</time>
      </trkpt>
      <trkpt lat="43.33743" lon="-0.53297">
        <ele>202.98</ele>
        <time>2018-06-03T06:54:42Z</time>
      </trkpt>
      <trkpt lat="43.33758" lon="-0.53299">
        <ele>208.74</ele>
        <time>2018-06-03T06:54:59Z</time>
      </trkpt>
      <trkpt lat="43.33791" lon="-0.53292">
        <ele>205.38</ele>
        <time>2018-06-03T06:55:17Z</time>
      </trkpt>
      <trkpt lat="43.33825" lon="-0.53297">
        <ele>206.34</ele>
        <time>2018-06-03T06:55:36Z</time>
      </trkpt>
      <trkpt lat="43.33841" lon="-0.53299">
        <ele>210.19</ele>
        <time>2018-06-03T06:55:50Z</time>
      </trkpt>
      <trkpt lat="43.33858" lon="-0.53299">
        <ele>213.07</ele>
        <time>2018-06-03T06:56:03Z</time>
      </trkpt>
      <trkpt lat="43.33881" lon="-0.533">
        <ele>216.91</ele>
        <time>2018-06-03T06:56:20Z</time>
      </trkpt>
      <trkpt lat="43.33905" lon="-0.53304">
        <ele>218.84</ele>
        <time>2018-06-03T06:56:38Z</time>
      </trkpt>
      <trkpt lat="43.33928" lon="-0.53304">
        <ele>224.12</ele>
        <time>2018-06-03T06:56:55Z</time>
      </trkpt>
      <trkpt lat="43.33942" lon="-0.53301">
        <ele>226.53</ele>
        <time>2018-06-03T06:57:04Z</time>
      </trkpt>
      <trkpt lat="43.33973" lon="-0.53303">
        <ele>230.37</ele>
        <time>2018-06-03T06:57:22Z</time>
      </trkpt>
      <trkpt lat="43.33993" lon="-0.53302">
        <ele>235.18</ele>
        <time>2018-06-03T06:57:41Z</time>
      </trkpt>
      <trkpt lat="43.34013" lon="-0.53299">
        <ele>238.06</ele>
        <time>2018-06-03T06:57:57Z</time>
      </trkpt>
      <trkpt lat="43.34038" lon="-0.53293">
        <ele>242.87</ele>
        <time>2018-06-03T06:58:13Z</time>
      </trkpt>
      <trkpt lat="43.34046" lon="-0.53292">
        <ele>245.27</ele>
        <time>2018-06-03T06:58:17Z</time>
      </trkpt>
      <trkpt lat="43.34062" lon="-0.53284">
        <ele>253.44</ele>
        <time>2018-06-03T06:58:31Z</time>
      </trkpt>
      <trkpt lat="43.34073" lon="-0.53273">
        <ele>260.65</ele>
        <time>2018-06-03T06:58:45Z</time>
      </trkpt>
      <trkpt lat="43.34092" lon="-0.5326">
        <ele>265.94</ele>
        <time>2018-06-03T06:59:01Z</time>
      </trkpt>
      <trkpt lat="43.34101" lon="-0.53252">
        <ele>266.9</ele>
        <time>2018-06-03T06:59:08Z</time>
      </trkpt>
      <trkpt lat="43.34106" lon="-0.53247">
        <ele>267.86</ele>
        <time>2018-06-03T06:59:12Z</time>
      </trkpt>
      <trkpt lat="43.34124" lon="-0.53219">
        <ele>264.98</ele>
        <time>2018-06-03T06:59:28Z</time>
      </trkpt>
      <trkpt lat="43.34129" lon="-0.53196">
        <ele>265.46</ele>
        <time>2018-06-03T06:59:40Z</time>
      </trkpt>
      <trkpt lat="43.34135" lon="-0.53179">
        <ele>269.79</ele>
        <time>2018-06-03T06:59:50Z</time>
      </trkpt>
      <trkpt lat="43.34141" lon="-0.53161">
        <ele>280.84</ele>
        <time>2018-06-03T07:00:06Z</time>
      </trkpt>
      <trkpt lat="43.34151" lon="-0.53144">
        <ele>289.49</ele>
        <time>2018-06-03T07:00:22Z</time>
      </trkpt>
      <trkpt lat="43.34161" lon="-0.53128">
        <ele>291.42</ele>
        <time>2018-06-03T07:00:34Z</time>
      </trkpt>
      <trkpt lat="43.34182" lon="-0.53098">
        <ele>287.09</ele>
        <time>2018-06-03T07:00:52Z</time>
      </trkpt>
      <trkpt lat="43.34189" lon="-0.53079">
        <ele>282.77</ele>
        <time>2018-06-03T07:01:02Z</time>
      </trkpt>
      <trkpt lat="43.34205" lon="-0.53051">
        <ele>277.48</ele>
        <time>2018-06-03T07:01:16Z</time>
      </trkpt>
      <trkpt lat="43.34207" lon="-0.53051">
        <ele>277.48</ele>
        <time>2018-06-03T07:01:17Z</time>
      </trkpt>
      <trkpt lat="43.34216" lon="-0.53046">
        <ele>274.59</ele>
        <time>2018-06-03T07:01:21Z</time>
      </trkpt>
      <trkpt lat="43.34219" lon="-0.53044">
        <ele>274.59</ele>
        <time>2018-06-03T07:01:22Z</time>
      </trkpt>
      <trkpt lat="43.34221" lon="-0.53041">
        <ele>274.11</ele>
        <time>2018-06-03T07:01:23Z</time>
      </trkpt>
      <trkpt lat="43.3425" lon="-0.53013">
        <ele>267.38</ele>
        <time>2018-06-03T07:01:36Z</time>
      </trkpt>
      <trkpt lat="43.34269" lon="-0.52977">
        <ele>262.58</ele>
        <time>2018-06-03T07:01:53Z</time>
      </trkpt>
      <trkpt lat="43.3428" lon="-0.52951">
        <ele>266.9</ele>
        <time>2018-06-03T07:02:11Z</time>
      </trkpt>
      <trkpt lat="43.34297" lon="-0.52936">
        <ele>272.67</ele>
        <time>2018-06-03T07:02:27Z</time>
      </trkpt>
      <trkpt lat="43.34313" lon="-0.52913">
        <ele>270.75</ele>
        <time>2018-06-03T07:02:41Z</time>
      </trkpt>
      <trkpt lat="43.34334" lon="-0.52882">
        <ele>268.35</ele>
        <time>2018-06-03T07:02:58Z</time>
      </trkpt>
      <trkpt lat="43.3434" lon="-0.52876">
        <ele>269.79</ele>
        <time>2018-06-03T07:03:04Z</time>
      </trkpt>
      <trkpt lat="43.34346" lon="-0.52871">
        <ele>271.23</ele>
        <time>2018-06-03T07:03:08Z</time>
      </trkpt>
      <trkpt lat="43.34364" lon="-0.52843">
        <ele>276.04</ele>
        <time>2018-06-03T07:03:21Z</time>
      </trkpt>
      <trkpt lat="43.3437" lon="-0.52835">
        <ele>277.96</ele>
        <time>2018-06-03T07:03:25Z</time>
      </trkpt>
      <trkpt lat="43.34395" lon="-0.52815">
        <ele>282.28</ele>
        <time>2018-06-03T07:03:38Z</time>
      </trkpt>
      <trkpt lat="43.34423" lon="-0.52838">
        <ele>287.09</ele>
        <time>2018-06-03T07:03:53Z</time>
      </trkpt>
      <trkpt lat="43.34436" lon="-0.52868">
        <ele>285.65</ele>
        <time>2018-06-03T07:04:08Z</time>
      </trkpt>
      <trkpt lat="43.3444" lon="-0.52876">
        <ele>284.69</ele>
        <time>2018-06-03T07:04:12Z</time>
      </trkpt>
      <trkpt lat="43.34443" lon="-0.52881">
        <ele>284.21</ele>
        <time>2018-06-03T07:04:15Z</time>
      </trkpt>
      <trkpt lat="43.3445" lon="-0.52896">
        <ele>283.73</ele>
        <time>2018-06-03T07:04:23Z</time>
      </trkpt>
      <trkpt lat="43.34456" lon="-0.52905">
        <ele>282.28</ele>
        <time>2018-06-03T07:04:30Z</time>
      </trkpt>
      <trkpt lat="43.3446" lon="-0.52911">
        <ele>282.28</ele>
        <time>2018-06-03T07:04:34Z</time>
      </trkpt>
      <trkpt lat="43.34465" lon="-0.52919">
        <ele>282.77</ele>
        <time>2018-06-03T07:04:39Z</time>
      </trkpt>
      <trkpt lat="43.34472" lon="-0.52925">
        <ele>281.8</ele>
        <time>2018-06-03T07:04:45Z</time>
      </trkpt>
      <trkpt lat="43.34489" lon="-0.5295">
        <ele>278.92</ele>
        <time>2018-06-03T07:05:01Z</time>
      </trkpt>
      <trkpt lat="43.34497" lon="-0.52969">
        <ele>277.48</ele>
        <time>2018-06-03T07:05:15Z</time>
      </trkpt>
      <trkpt lat="43.34514" lon="-0.52994">
        <ele>275.56</ele>
        <time>2018-06-03T07:05:29Z</time>
      </trkpt>
      <trkpt lat="43.34527" lon="-0.53016">
        <ele>273.15</ele>
        <time>2018-06-03T07:05:39Z</time>
      </trkpt>
      <trkpt lat="43.34528" lon="-0.53019">
        <ele>273.15</ele>
        <time>2018-06-03T07:05:40Z</time>
      </trkpt>
      <trkpt lat="43.3453" lon="-0.53023">
        <ele>273.63</ele>
        <time>2018-06-03T07:05:41Z</time>
      </trkpt>
      <trkpt lat="43.34531" lon="-0.53026">
        <ele>273.63</ele>
        <time>2018-06-03T07:05:42Z</time>
      </trkpt>
      <trkpt lat="43.34533" lon="-0.53028">
        <ele>273.63</ele>
        <time>2018-06-03T07:05:43Z</time>
      </trkpt>
      <trkpt lat="43.34546" lon="-0.53061">
        <ele>275.07</ele>
        <time>2018-06-03T07:05:51Z</time>
      </trkpt>
      <trkpt lat="43.34547" lon="-0.53068">
        <ele>275.07</ele>
        <time>2018-06-03T07:05:52Z</time>
      </trkpt>
      <trkpt lat="43.34551" lon="-0.5311">
        <ele>276.52</ele>
        <time>2018-06-03T07:05:57Z</time>
      </trkpt>
      <trkpt lat="43.34559" lon="-0.53149">
        <ele>277.48</ele>
        <time>2018-06-03T07:06:02Z</time>
      </trkpt>
      <trkpt lat="43.34559" lon="-0.53157">
        <ele>277.48</ele>
        <time>2018-06-03T07:06:03Z</time>
      </trkpt>
      <trkpt lat="43.34559" lon="-0.53166">
        <ele>277.96</ele>
        <time>2018-06-03T07:06:04Z</time>
      </trkpt>
      <trkpt lat="43.34559" lon="-0.53174">
        <ele>277.96</ele>
        <time>2018-06-03T07:06:05Z</time>
      </trkpt>
      <trkpt lat="43.3456" lon="-0.53184">
        <ele>277.96</ele>
        <time>2018-06-03T07:06:06Z</time>
      </trkpt>
      <trkpt lat="43.34561" lon="-0.53195">
        <ele>277.96</ele>
        <time>2018-06-03T07:06:07Z</time>
      </trkpt>
      <trkpt lat="43.34561" lon="-0.53205">
        <ele>277.96</ele>
        <time>2018-06-03T07:06:08Z</time>
      </trkpt>
      <trkpt lat="43.34563" lon="-0.53217">
        <ele>277.96</ele>
        <time>2018-06-03T07:06:09Z</time>
      </trkpt>
      <trkpt lat="43.34565" lon="-0.53227">
        <ele>277.96</ele>
        <time>2018-06-03T07:06:10Z</time>
      </trkpt>
      <trkpt lat="43.34571" lon="-0.53253">
        <ele>278.44</ele>
        <time>2018-06-03T07:06:13Z</time>
      </trkpt>
      <trkpt lat="43.34572" lon="-0.5326">
        <ele>278.44</ele>
        <time>2018-06-03T07:06:14Z</time>
      </trkpt>
      <trkpt lat="43.34587" lon="-0.53379">
        <ele>284.21</ele>
        <time>2018-06-03T07:06:29Z</time>
      </trkpt>
      <trkpt lat="43.34597" lon="-0.535">
        <ele>282.77</ele>
        <time>2018-06-03T07:06:37Z</time>
      </trkpt>
      <trkpt lat="43.34579" lon="-0.53627">
        <ele>279.4</ele>
        <time>2018-06-03T07:06:46Z</time>
      </trkpt>
      <trkpt lat="43.34537" lon="-0.53779">
        <ele>269.79</ele>
        <time>2018-06-03T07:06:57Z</time>
      </trkpt>
      <trkpt lat="43.34526" lon="-0.5383">
        <ele>265.94</ele>
        <time>2018-06-03T07:07:01Z</time>
      </trkpt>
      <trkpt lat="43.34526" lon="-0.5384">
        <ele>265.46</ele>
        <time>2018-06-03T07:07:02Z</time>
      </trkpt>
      <trkpt lat="43.34526" lon="-0.53849">
        <ele>264.98</ele>
        <time>2018-06-03T07:07:03Z</time>
      </trkpt>
      <trkpt lat="43.34541" lon="-0.53951">
        <ele>260.17</ele>
        <time>2018-06-03T07:07:13Z</time>
      </trkpt>
      <trkpt lat="43.34542" lon="-0.5396">
        <ele>259.21</ele>
        <time>2018-06-03T07:07:14Z</time>
      </trkpt>
      <trkpt lat="43.34542" lon="-0.53999">
        <ele>255.37</ele>
        <time>2018-06-03T07:07:22Z</time>
      </trkpt>
      <trkpt lat="43.34541" lon="-0.54018">
        <ele>252.96</ele>
        <time>2018-06-03T07:07:28Z</time>
      </trkpt>
      <trkpt lat="43.34542" lon="-0.54021">
        <ele>252.48</ele>
        <time>2018-06-03T07:07:29Z</time>
      </trkpt>
      <trkpt lat="43.34543" lon="-0.54023">
        <ele>252.48</ele>
        <time>2018-06-03T07:07:30Z</time>
      </trkpt>
      <trkpt lat="43.34545" lon="-0.54024">
        <ele>251.52</ele>
        <time>2018-06-03T07:07:31Z</time>
      </trkpt>
      <trkpt lat="43.34564" lon="-0.54044">
        <ele>244.31</ele>
        <time>2018-06-03T07:07:45Z</time>
      </trkpt>
      <trkpt lat="43.34567" lon="-0.54046">
        <ele>243.35</ele>
        <time>2018-06-03T07:07:47Z</time>
      </trkpt>
      <trkpt lat="43.34573" lon="-0.54056">
        <ele>240.95</ele>
        <time>2018-06-03T07:07:52Z</time>
      </trkpt>
      <trkpt lat="43.34586" lon="-0.54078">
        <ele>232.78</ele>
        <time>2018-06-03T07:08:05Z</time>
      </trkpt>
      <trkpt lat="43.34598" lon="-0.54092">
        <ele>230.85</ele>
        <time>2018-06-03T07:08:14Z</time>
      </trkpt>
      <trkpt lat="43.34605" lon="-0.54122">
        <ele>231.81</ele>
        <time>2018-06-03T07:08:27Z</time>
      </trkpt>
      <trkpt lat="43.34608" lon="-0.54131">
        <ele>230.85</ele>
        <time>2018-06-03T07:08:30Z</time>
      </trkpt>
      <trkpt lat="43.34625" lon="-0.54154">
        <ele>228.45</ele>
        <time>2018-06-03T07:08:40Z</time>
      </trkpt>
      <trkpt lat="43.34646" lon="-0.54159">
        <ele>227.01</ele>
        <time>2018-06-03T07:08:52Z</time>
      </trkpt>
      <trkpt lat="43.34652" lon="-0.54165">
        <ele>226.05</ele>
        <time>2018-06-03T07:08:56Z</time>
      </trkpt>
      <trkpt lat="43.34656" lon="-0.54173">
        <ele>223.64</ele>
        <time>2018-06-03T07:09:00Z</time>
      </trkpt>
      <trkpt lat="43.34663" lon="-0.54175">
        <ele>222.2</ele>
        <time>2018-06-03T07:09:04Z</time>
      </trkpt>
      <trkpt lat="43.34692" lon="-0.54181">
        <ele>220.28</ele>
        <time>2018-06-03T07:09:16Z</time>
      </trkpt>
      <trkpt lat="43.347" lon="-0.54201">
        <ele>219.8</ele>
        <time>2018-06-03T07:09:20Z</time>
      </trkpt>
      <trkpt lat="43.347" lon="-0.54208">
        <ele>219.8</ele>
        <time>2018-06-03T07:09:21Z</time>
      </trkpt>
      <trkpt lat="43.347" lon="-0.54214">
        <ele>219.32</ele>
        <time>2018-06-03T07:09:22Z</time>
      </trkpt>
      <trkpt lat="43.347" lon="-0.54221">
        <ele>218.84</ele>
        <time>2018-06-03T07:09:23Z</time>
      </trkpt>
      <trkpt lat="43.34693" lon="-0.54309">
        <ele>216.91</ele>
        <time>2018-06-03T07:09:31Z</time>
      </trkpt>
      <trkpt lat="43.34691" lon="-0.54317">
        <ele>216.43</ele>
        <time>2018-06-03T07:09:32Z</time>
      </trkpt>
      <trkpt lat="43.34689" lon="-0.54326">
        <ele>215.95</ele>
        <time>2018-06-03T07:09:33Z</time>
      </trkpt>
      <trkpt lat="43.34681" lon="-0.54356">
        <ele>214.03</ele>
        <time>2018-06-03T07:09:37Z</time>
      </trkpt>
      <trkpt lat="43.34681" lon="-0.54364">
        <ele>213.55</ele>
        <time>2018-06-03T07:09:38Z</time>
      </trkpt>
      <trkpt lat="43.34683" lon="-0.54378">
        <ele>212.59</ele>
        <time>2018-06-03T07:09:40Z</time>
      </trkpt>
      <trkpt lat="43.34684" lon="-0.54385">
        <ele>212.11</ele>
        <time>2018-06-03T07:09:41Z</time>
      </trkpt>
      <trkpt lat="43.34684" lon="-0.54392">
        <ele>211.63</ele>
        <time>2018-06-03T07:09:42Z</time>
      </trkpt>
      <trkpt lat="43.34684" lon="-0.54398">
        <ele>211.63</ele>
        <time>2018-06-03T07:09:43Z</time>
      </trkpt>
      <trkpt lat="43.34683" lon="-0.54404">
        <ele>211.63</ele>
        <time>2018-06-03T07:09:44Z</time>
      </trkpt>
      <trkpt lat="43.34676" lon="-0.54473">
        <ele>210.67</ele>
        <time>2018-06-03T07:09:58Z</time>
      </trkpt>
      <trkpt lat="43.34672" lon="-0.54523">
        <ele>209.22</ele>
        <time>2018-06-03T07:10:08Z</time>
      </trkpt>
      <trkpt lat="43.34666" lon="-0.54576">
        <ele>207.3</ele>
        <time>2018-06-03T07:10:20Z</time>
      </trkpt>
      <trkpt lat="43.34667" lon="-0.54578">
        <ele>207.3</ele>
        <time>2018-06-03T07:10:21Z</time>
      </trkpt>
      <trkpt lat="43.34667" lon="-0.5458">
        <ele>204.9</ele>
        <time>2018-06-03T07:10:26Z</time>
      </trkpt>
      <trkpt lat="43.34677" lon="-0.54569">
        <ele>192.4</ele>
        <time>2018-06-03T07:10:44Z</time>
      </trkpt>
      <trkpt lat="43.34696" lon="-0.54548">
        <ele>198.17</ele>
        <time>2018-06-03T07:10:59Z</time>
      </trkpt>
      <trkpt lat="43.34711" lon="-0.54523">
        <ele>204.42</ele>
        <time>2018-06-03T07:11:13Z</time>
      </trkpt>
      <trkpt lat="43.34731" lon="-0.54483">
        <ele>205.38</ele>
        <time>2018-06-03T07:11:29Z</time>
      </trkpt>
      <trkpt lat="43.34771" lon="-0.54446">
        <ele>193.84</ele>
        <time>2018-06-03T07:11:48Z</time>
      </trkpt>
      <trkpt lat="43.348" lon="-0.54413">
        <ele>187.59</ele>
        <time>2018-06-03T07:12:04Z</time>
      </trkpt>
      <trkpt lat="43.34827" lon="-0.54384">
        <ele>186.63</ele>
        <time>2018-06-03T07:12:19Z</time>
      </trkpt>
      <trkpt lat="43.34858" lon="-0.54363">
        <ele>186.63</ele>
        <time>2018-06-03T07:12:33Z</time>
      </trkpt>
      <trkpt lat="43.34893" lon="-0.54355">
        <ele>186.63</ele>
        <time>2018-06-03T07:12:47Z</time>
      </trkpt>
      <trkpt lat="43.3493" lon="-0.54321">
        <ele>176.06</ele>
        <time>2018-06-03T07:13:06Z</time>
      </trkpt>
      <trkpt lat="43.34955" lon="-0.54295">
        <ele>168.37</ele>
        <time>2018-06-03T07:13:22Z</time>
      </trkpt>
      <trkpt lat="43.34972" lon="-0.54273">
        <ele>168.85</ele>
        <time>2018-06-03T07:13:37Z</time>
      </trkpt>
      <trkpt lat="43.34992" lon="-0.5425">
        <ele>171.25</ele>
        <time>2018-06-03T07:13:54Z</time>
      </trkpt>
      <trkpt lat="43.35005" lon="-0.54219">
        <ele>174.14</ele>
        <time>2018-06-03T07:14:11Z</time>
      </trkpt>
      <trkpt lat="43.34993" lon="-0.5418">
        <ele>177.02</ele>
        <time>2018-06-03T07:14:30Z</time>
      </trkpt>
      <trkpt lat="43.34987" lon="-0.54123">
        <ele>177.5</ele>
        <time>2018-06-03T07:14:45Z</time>
      </trkpt>
      <trkpt lat="43.34991" lon="-0.54064">
        <ele>177.5</ele>
        <time>2018-06-03T07:15:00Z</time>
      </trkpt>
      <trkpt lat="43.34995" lon="-0.54003">
        <ele>178.94</ele>
        <time>2018-06-03T07:15:16Z</time>
      </trkpt>
      <trkpt lat="43.34975" lon="-0.53935">
        <ele>179.42</ele>
        <time>2018-06-03T07:15:34Z</time>
      </trkpt>
      <trkpt lat="43.34967" lon="-0.53867">
        <ele>178.94</ele>
        <time>2018-06-03T07:15:48Z</time>
      </trkpt>
      <trkpt lat="43.34967" lon="-0.53809">
        <ele>177.5</ele>
        <time>2018-06-03T07:16:01Z</time>
      </trkpt>
      <trkpt lat="43.34976" lon="-0.5378">
        <ele>180.38</ele>
        <time>2018-06-03T07:16:16Z</time>
      </trkpt>
      <trkpt lat="43.34998" lon="-0.5375">
        <ele>186.15</ele>
        <time>2018-06-03T07:16:36Z</time>
      </trkpt>
      <trkpt lat="43.35023" lon="-0.53723">
        <ele>190.48</ele>
        <time>2018-06-03T07:16:58Z</time>
      </trkpt>
      <trkpt lat="43.35031" lon="-0.5371">
        <ele>191.44</ele>
        <time>2018-06-03T07:17:07Z</time>
      </trkpt>
      <trkpt lat="43.3503" lon="-0.53708">
        <ele>191.44</ele>
        <time>2018-06-03T07:17:08Z</time>
      </trkpt>
      <trkpt lat="43.35029" lon="-0.53705">
        <ele>191.92</ele>
        <time>2018-06-03T07:17:09Z</time>
      </trkpt>
      <trkpt lat="43.35009" lon="-0.53647">
        <ele>193.84</ele>
        <time>2018-06-03T07:17:26Z</time>
      </trkpt>
      <trkpt lat="43.34998" lon="-0.53581">
        <ele>196.25</ele>
        <time>2018-06-03T07:17:45Z</time>
      </trkpt>
      <trkpt lat="43.35001" lon="-0.53502">
        <ele>198.65</ele>
        <time>2018-06-03T07:18:05Z</time>
      </trkpt>
      <trkpt lat="43.34998" lon="-0.53445">
        <ele>201.05</ele>
        <time>2018-06-03T07:18:20Z</time>
      </trkpt>
      <trkpt lat="43.34991" lon="-0.53393">
        <ele>202.98</ele>
        <time>2018-06-03T07:18:35Z</time>
      </trkpt>
      <trkpt lat="43.34977" lon="-0.53342">
        <ele>206.34</ele>
        <time>2018-06-03T07:18:49Z</time>
      </trkpt>
      <trkpt lat="43.34966" lon="-0.53301">
        <ele>206.82</ele>
        <time>2018-06-03T07:19:00Z</time>
      </trkpt>
      <trkpt lat="43.34963" lon="-0.53286">
        <ele>206.82</ele>
        <time>2018-06-03T07:19:05Z</time>
      </trkpt>
      <trkpt lat="43.34963" lon="-0.53283">
        <ele>206.82</ele>
        <time>2018-06-03T07:19:06Z</time>
      </trkpt>
      <trkpt lat="43.34963" lon="-0.5328">
        <ele>206.82</ele>
        <time>2018-06-03T07:19:07Z</time>
      </trkpt>
      <trkpt lat="43.34963" lon="-0.53277">
        <ele>206.82</ele>
        <time>2018-06-03T07:19:08Z</time>
      </trkpt>
      <trkpt lat="43.34962" lon="-0.53274">
        <ele>206.34</ele>
        <time>2018-06-03T07:19:09Z</time>
      </trkpt>
      <trkpt lat="43.34962" lon="-0.53272">
        <ele>206.34</ele>
        <time>2018-06-03T07:19:10Z</time>
      </trkpt>
      <trkpt lat="43.34962" lon="-0.53269">
        <ele>206.34</ele>
        <time>2018-06-03T07:19:11Z</time>
      </trkpt>
      <trkpt lat="43.34961" lon="-0.53267">
        <ele>206.82</ele>
        <time>2018-06-03T07:19:12Z</time>
      </trkpt>
      <trkpt lat="43.34962" lon="-0.53263">
        <ele>206.82</ele>
        <time>2018-06-03T07:19:14Z</time>
      </trkpt>
      <trkpt lat="43.34963" lon="-0.53262">
        <ele>206.82</ele>
        <time>2018-06-03T07:19:15Z</time>
      </trkpt>
      <trkpt lat="43.34967" lon="-0.5326">
        <ele>205.86</ele>
        <time>2018-06-03T07:19:18Z</time>
      </trkpt>
      <trkpt lat="43.34969" lon="-0.53261">
        <ele>205.86</ele>
        <time>2018-06-03T07:19:19Z</time>
      </trkpt>
      <trkpt lat="43.34982" lon="-0.53273">
        <ele>208.26</ele>
        <time>2018-06-03T07:19:35Z</time>
      </trkpt>
      <trkpt lat="43.34982" lon="-0.53274">
        <ele>208.74</ele>
        <time>2018-06-03T07:19:36Z</time>
      </trkpt>
      <trkpt lat="43.34992" lon="-0.53282">
        <ele>213.07</ele>
        <time>2018-06-03T07:19:46Z</time>
      </trkpt>
      <trkpt lat="43.35009" lon="-0.53287">
        <ele>220.28</ele>
        <time>2018-06-03T07:19:59Z</time>
      </trkpt>
      <trkpt lat="43.35026" lon="-0.53293">
        <ele>227.49</ele>
        <time>2018-06-03T07:20:15Z</time>
      </trkpt>
      <trkpt lat="43.3503" lon="-0.53298">
        <ele>230.37</ele>
        <time>2018-06-03T07:20:30Z</time>
      </trkpt>
      <trkpt lat="43.35036" lon="-0.53306">
        <ele>224.61</ele>
        <time>2018-06-03T07:20:54Z</time>
      </trkpt>
      <trkpt lat="43.3504" lon="-0.53312">
        <ele>222.68</ele>
        <time>2018-06-03T07:21:14Z</time>
      </trkpt>
      <trkpt lat="43.35038" lon="-0.53318">
        <ele>227.01</ele>
        <time>2018-06-03T07:21:55Z</time>
      </trkpt>
      <trkpt lat="43.35032" lon="-0.53323">
        <ele>229.89</ele>
        <time>2018-06-03T07:22:33Z</time>
      </trkpt>
      <trkpt lat="43.35033" lon="-0.5332">
        <ele>223.16</ele>
        <time>2018-06-03T07:23:11Z</time>
      </trkpt>
      <trkpt lat="43.35038" lon="-0.53319">
        <ele>220.28</ele>
        <time>2018-06-03T07:23:56Z</time>
      </trkpt>
      <trkpt lat="43.3504" lon="-0.53321">
        <ele>220.28</ele>
        <time>2018-06-03T07:24:34Z</time>
      </trkpt>
      <trkpt lat="43.35037" lon="-0.53324">
        <ele>218.36</ele>
        <time>2018-06-03T07:25:12Z</time>
      </trkpt>
      <trkpt lat="43.35039" lon="-0.53321">
        <ele>216.91</ele>
        <time>2018-06-03T07:25:46Z</time>
      </trkpt>
      <trkpt lat="43.35034" lon="-0.53311">
        <ele>216.43</ele>
        <time>2018-06-03T07:26:15Z</time>
      </trkpt>
      <trkpt lat="43.35033" lon="-0.53306">
        <ele>216.43</ele>
        <time>2018-06-03T07:26:37Z</time>
      </trkpt>
      <trkpt lat="43.35034" lon="-0.53308">
        <ele>216.43</ele>
        <time>2018-06-03T07:26:43Z</time>
      </trkpt>
      <trkpt lat="43.3504" lon="-0.53332">
        <ele>218.84</ele>
        <time>2018-06-03T07:26:53Z</time>
      </trkpt>
      <trkpt lat="43.35049" lon="-0.53388">
        <ele>223.16</ele>
        <time>2018-06-03T07:27:02Z</time>
      </trkpt>
      <trkpt lat="43.35055" lon="-0.5343">
        <ele>222.68</ele>
        <time>2018-06-03T07:27:11Z</time>
      </trkpt>
      <trkpt lat="43.35062" lon="-0.53481">
        <ele>220.28</ele>
        <time>2018-06-03T07:27:27Z</time>
      </trkpt>
      <trkpt lat="43.35072" lon="-0.53526">
        <ele>222.2</ele>
        <time>2018-06-03T07:27:38Z</time>
      </trkpt>
      <trkpt lat="43.35076" lon="-0.5355">
        <ele>221.24</ele>
        <time>2018-06-03T07:27:42Z</time>
      </trkpt>
      <trkpt lat="43.35076" lon="-0.53557">
        <ele>221.24</ele>
        <time>2018-06-03T07:27:43Z</time>
      </trkpt>
      <trkpt lat="43.35076" lon="-0.53564">
        <ele>220.76</ele>
        <time>2018-06-03T07:27:44Z</time>
      </trkpt>
      <trkpt lat="43.35075" lon="-0.5357">
        <ele>220.28</ele>
        <time>2018-06-03T07:27:45Z</time>
      </trkpt>
      <trkpt lat="43.35074" lon="-0.53576">
        <ele>219.8</ele>
        <time>2018-06-03T07:27:46Z</time>
      </trkpt>
      <trkpt lat="43.35073" lon="-0.53582">
        <ele>219.32</ele>
        <time>2018-06-03T07:27:47Z</time>
      </trkpt>
      <trkpt lat="43.35087" lon="-0.53624">
        <ele>213.07</ele>
        <time>2018-06-03T07:27:57Z</time>
      </trkpt>
      <trkpt lat="43.35114" lon="-0.53675">
        <ele>210.67</ele>
        <time>2018-06-03T07:28:12Z</time>
      </trkpt>
      <trkpt lat="43.35126" lon="-0.53724">
        <ele>214.51</ele>
        <time>2018-06-03T07:28:27Z</time>
      </trkpt>
      <trkpt lat="43.35135" lon="-0.53744">
        <ele>220.28</ele>
        <time>2018-06-03T07:28:43Z</time>
      </trkpt>
      <trkpt lat="43.35143" lon="-0.53768">
        <ele>228.93</ele>
        <time>2018-06-03T07:29:01Z</time>
      </trkpt>
      <trkpt lat="43.35149" lon="-0.53794">
        <ele>239.02</ele>
        <time>2018-06-03T07:29:17Z</time>
      </trkpt>
      <trkpt lat="43.3515" lon="-0.53813">
        <ele>243.83</ele>
        <time>2018-06-03T07:29:35Z</time>
      </trkpt>
      <trkpt lat="43.35152" lon="-0.53827">
        <ele>244.31</ele>
        <time>2018-06-03T07:29:53Z</time>
      </trkpt>
      <trkpt lat="43.35157" lon="-0.53842">
        <ele>241.43</ele>
        <time>2018-06-03T07:30:16Z</time>
      </trkpt>
      <trkpt lat="43.35162" lon="-0.53854">
        <ele>242.39</ele>
        <time>2018-06-03T07:30:36Z</time>
      </trkpt>
      <trkpt lat="43.35167" lon="-0.53871">
        <ele>239.51</ele>
        <time>2018-06-03T07:30:55Z</time>
      </trkpt>
      <trkpt lat="43.35171" lon="-0.53882">
        <ele>240.47</ele>
        <time>2018-06-03T07:31:17Z</time>
      </trkpt>
      <trkpt lat="43.35181" lon="-0.53897">
        <ele>239.51</ele>
        <time>2018-06-03T07:31:33Z</time>
      </trkpt>
      <trkpt lat="43.35183" lon="-0.53901">
        <ele>239.51</ele>
        <time>2018-06-03T07:31:36Z</time>
      </trkpt>
      <trkpt lat="43.35194" lon="-0.53912">
        <ele>239.99</ele>
        <time>2018-06-03T07:31:46Z</time>
      </trkpt>
      <trkpt lat="43.35204" lon="-0.53936">
        <ele>241.91</ele>
        <time>2018-06-03T07:31:59Z</time>
      </trkpt>
      <trkpt lat="43.3522" lon="-0.53972">
        <ele>240.95</ele>
        <time>2018-06-03T07:32:09Z</time>
      </trkpt>
      <trkpt lat="43.35222" lon="-0.53983">
        <ele>239.51</ele>
        <time>2018-06-03T07:32:14Z</time>
      </trkpt>
      <trkpt lat="43.35222" lon="-0.53986">
        <ele>239.02</ele>
        <time>2018-06-03T07:32:15Z</time>
      </trkpt>
      <trkpt lat="43.35228" lon="-0.54024">
        <ele>236.14</ele>
        <time>2018-06-03T07:32:27Z</time>
      </trkpt>
      <trkpt lat="43.35227" lon="-0.54036">
        <ele>234.22</ele>
        <time>2018-06-03T07:32:31Z</time>
      </trkpt>
      <trkpt lat="43.35225" lon="-0.54038">
        <ele>233.74</ele>
        <time>2018-06-03T07:32:32Z</time>
      </trkpt>
      <trkpt lat="43.35203" lon="-0.54053">
        <ele>228.45</ele>
        <time>2018-06-03T07:32:42Z</time>
      </trkpt>
      <trkpt lat="43.35202" lon="-0.54055">
        <ele>228.45</ele>
        <time>2018-06-03T07:32:43Z</time>
      </trkpt>
      <trkpt lat="43.352" lon="-0.54058">
        <ele>228.45</ele>
        <time>2018-06-03T07:32:44Z</time>
      </trkpt>
      <trkpt lat="43.35199" lon="-0.54061">
        <ele>228.93</ele>
        <time>2018-06-03T07:32:45Z</time>
      </trkpt>
      <trkpt lat="43.35198" lon="-0.54066">
        <ele>228.93</ele>
        <time>2018-06-03T07:32:46Z</time>
      </trkpt>
      <trkpt lat="43.35198" lon="-0.54072">
        <ele>228.45</ele>
        <time>2018-06-03T07:32:47Z</time>
      </trkpt>
      <trkpt lat="43.35196" lon="-0.54084">
        <ele>226.53</ele>
        <time>2018-06-03T07:32:48Z</time>
      </trkpt>
      <trkpt lat="43.35192" lon="-0.54096">
        <ele>225.09</ele>
        <time>2018-06-03T07:32:49Z</time>
      </trkpt>
      <trkpt lat="43.35188" lon="-0.54109">
        <ele>222.68</ele>
        <time>2018-06-03T07:32:50Z</time>
      </trkpt>
      <trkpt lat="43.35185" lon="-0.54122">
        <ele>219.8</ele>
        <time>2018-06-03T07:32:51Z</time>
      </trkpt>
      <trkpt lat="43.35179" lon="-0.54148">
        <ele>215.47</ele>
        <time>2018-06-03T07:32:53Z</time>
      </trkpt>
      <trkpt lat="43.35177" lon="-0.54159">
        <ele>212.59</ele>
        <time>2018-06-03T07:32:54Z</time>
      </trkpt>
      <trkpt lat="43.35177" lon="-0.54169">
        <ele>210.19</ele>
        <time>2018-06-03T07:32:55Z</time>
      </trkpt>
      <trkpt lat="43.35178" lon="-0.54179">
        <ele>208.26</ele>
        <time>2018-06-03T07:32:56Z</time>
      </trkpt>
      <trkpt lat="43.35181" lon="-0.54189">
        <ele>206.34</ele>
        <time>2018-06-03T07:32:57Z</time>
      </trkpt>
      <trkpt lat="43.35183" lon="-0.54199">
        <ele>203.94</ele>
        <time>2018-06-03T07:32:58Z</time>
      </trkpt>
      <trkpt lat="43.35203" lon="-0.54297">
        <ele>192.4</ele>
        <time>2018-06-03T07:33:07Z</time>
      </trkpt>
      <trkpt lat="43.35204" lon="-0.54307">
        <ele>191.44</ele>
        <time>2018-06-03T07:33:08Z</time>
      </trkpt>
      <trkpt lat="43.35203" lon="-0.54317">
        <ele>190.96</ele>
        <time>2018-06-03T07:33:09Z</time>
      </trkpt>
      <trkpt lat="43.35201" lon="-0.54326">
        <ele>190</ele>
        <time>2018-06-03T07:33:10Z</time>
      </trkpt>
      <trkpt lat="43.35199" lon="-0.54333">
        <ele>189.52</ele>
        <time>2018-06-03T07:33:11Z</time>
      </trkpt>
      <trkpt lat="43.35193" lon="-0.54355">
        <ele>187.59</ele>
        <time>2018-06-03T07:33:14Z</time>
      </trkpt>
      <trkpt lat="43.3519" lon="-0.54382">
        <ele>185.67</ele>
        <time>2018-06-03T07:33:18Z</time>
      </trkpt>
      <trkpt lat="43.35189" lon="-0.54388">
        <ele>185.67</ele>
        <time>2018-06-03T07:33:19Z</time>
      </trkpt>
      <trkpt lat="43.35188" lon="-0.54395">
        <ele>185.19</ele>
        <time>2018-06-03T07:33:20Z</time>
      </trkpt>
      <trkpt lat="43.3517" lon="-0.54465">
        <ele>180.38</ele>
        <time>2018-06-03T07:33:35Z</time>
      </trkpt>
      <trkpt lat="43.35168" lon="-0.54472">
        <ele>179.9</ele>
        <time>2018-06-03T07:33:36Z</time>
      </trkpt>
      <trkpt lat="43.35167" lon="-0.5448">
        <ele>179.42</ele>
        <time>2018-06-03T07:33:37Z</time>
      </trkpt>
      <trkpt lat="43.35166" lon="-0.54489">
        <ele>178.94</ele>
        <time>2018-06-03T07:33:38Z</time>
      </trkpt>
      <trkpt lat="43.35166" lon="-0.54499">
        <ele>178.46</ele>
        <time>2018-06-03T07:33:39Z</time>
      </trkpt>
      <trkpt lat="43.35166" lon="-0.54511">
        <ele>177.98</ele>
        <time>2018-06-03T07:33:40Z</time>
      </trkpt>
      <trkpt lat="43.35167" lon="-0.54535">
        <ele>176.54</ele>
        <time>2018-06-03T07:33:42Z</time>
      </trkpt>
      <trkpt lat="43.35169" lon="-0.54587">
        <ele>173.66</ele>
        <time>2018-06-03T07:33:47Z</time>
      </trkpt>
      <trkpt lat="43.35168" lon="-0.54605">
        <ele>172.21</ele>
        <time>2018-06-03T07:33:49Z</time>
      </trkpt>
      <trkpt lat="43.35167" lon="-0.54612">
        <ele>171.73</ele>
        <time>2018-06-03T07:33:50Z</time>
      </trkpt>
      <trkpt lat="43.35165" lon="-0.54618">
        <ele>170.77</ele>
        <time>2018-06-03T07:33:51Z</time>
      </trkpt>
      <trkpt lat="43.35162" lon="-0.54621">
        <ele>170.29</ele>
        <time>2018-06-03T07:33:52Z</time>
      </trkpt>
      <trkpt lat="43.3516" lon="-0.54623">
        <ele>169.81</ele>
        <time>2018-06-03T07:33:53Z</time>
      </trkpt>
      <trkpt lat="43.35157" lon="-0.54625">
        <ele>169.33</ele>
        <time>2018-06-03T07:33:54Z</time>
      </trkpt>
      <trkpt lat="43.35153" lon="-0.54627">
        <ele>169.33</ele>
        <time>2018-06-03T07:33:55Z</time>
      </trkpt>
      <trkpt lat="43.35148" lon="-0.54628">
        <ele>168.85</ele>
        <time>2018-06-03T07:33:56Z</time>
      </trkpt>
      <trkpt lat="43.35136" lon="-0.54633">
        <ele>167.89</ele>
        <time>2018-06-03T07:33:58Z</time>
      </trkpt>
      <trkpt lat="43.3513" lon="-0.54638">
        <ele>167.89</ele>
        <time>2018-06-03T07:33:59Z</time>
      </trkpt>
      <trkpt lat="43.35124" lon="-0.54643">
        <ele>167.41</ele>
        <time>2018-06-03T07:34:00Z</time>
      </trkpt>
      <trkpt lat="43.35114" lon="-0.54655">
        <ele>166.93</ele>
        <time>2018-06-03T07:34:02Z</time>
      </trkpt>
      <trkpt lat="43.35109" lon="-0.54658">
        <ele>166.93</ele>
        <time>2018-06-03T07:34:03Z</time>
      </trkpt>
      <trkpt lat="43.35104" lon="-0.5466">
        <ele>166.45</ele>
        <time>2018-06-03T07:34:04Z</time>
      </trkpt>
      <trkpt lat="43.35097" lon="-0.54661">
        <ele>165.96</ele>
        <time>2018-06-03T07:34:05Z</time>
      </trkpt>
      <trkpt lat="43.35089" lon="-0.54659">
        <ele>165.96</ele>
        <time>2018-06-03T07:34:06Z</time>
      </trkpt>
      <trkpt lat="43.35079" lon="-0.54657">
        <ele>165.48</ele>
        <time>2018-06-03T07:34:07Z</time>
      </trkpt>
      <trkpt lat="43.35069" lon="-0.54656">
        <ele>165.48</ele>
        <time>2018-06-03T07:34:08Z</time>
      </trkpt>
      <trkpt lat="43.34997" lon="-0.54642">
        <ele>158.75</ele>
        <time>2018-06-03T07:34:17Z</time>
      </trkpt>
      <trkpt lat="43.34982" lon="-0.54636">
        <ele>155.87</ele>
        <time>2018-06-03T07:34:20Z</time>
      </trkpt>
      <trkpt lat="43.34968" lon="-0.54634">
        <ele>152.99</ele>
        <time>2018-06-03T07:34:23Z</time>
      </trkpt>
      <trkpt lat="43.34962" lon="-0.54634">
        <ele>152.03</ele>
        <time>2018-06-03T07:34:24Z</time>
      </trkpt>
      <trkpt lat="43.34955" lon="-0.54636">
        <ele>151.06</ele>
        <time>2018-06-03T07:34:25Z</time>
      </trkpt>
      <trkpt lat="43.34948" lon="-0.54639">
        <ele>149.62</ele>
        <time>2018-06-03T07:34:26Z</time>
      </trkpt>
      <trkpt lat="43.34941" lon="-0.54643">
        <ele>148.66</ele>
        <time>2018-06-03T07:34:27Z</time>
      </trkpt>
      <trkpt lat="43.34935" lon="-0.54649">
        <ele>147.7</ele>
        <time>2018-06-03T07:34:28Z</time>
      </trkpt>
      <trkpt lat="43.3493" lon="-0.54656">
        <ele>146.74</ele>
        <time>2018-06-03T07:34:29Z</time>
      </trkpt>
      <trkpt lat="43.34927" lon="-0.54665">
        <ele>145.78</ele>
        <time>2018-06-03T07:34:30Z</time>
      </trkpt>
      <trkpt lat="43.34924" lon="-0.54675">
        <ele>144.34</ele>
        <time>2018-06-03T07:34:31Z</time>
      </trkpt>
      <trkpt lat="43.34921" lon="-0.54685">
        <ele>143.37</ele>
        <time>2018-06-03T07:34:32Z</time>
      </trkpt>
      <trkpt lat="43.34918" lon="-0.54695">
        <ele>142.41</ele>
        <time>2018-06-03T07:34:33Z</time>
      </trkpt>
      <trkpt lat="43.34915" lon="-0.54704">
        <ele>141.45</ele>
        <time>2018-06-03T07:34:34Z</time>
      </trkpt>
      <trkpt lat="43.34911" lon="-0.54714">
        <ele>140.97</ele>
        <time>2018-06-03T07:34:35Z</time>
      </trkpt>
      <trkpt lat="43.349" lon="-0.54742">
        <ele>138.57</ele>
        <time>2018-06-03T07:34:38Z</time>
      </trkpt>
      <trkpt lat="43.34895" lon="-0.54751">
        <ele>138.09</ele>
        <time>2018-06-03T07:34:39Z</time>
      </trkpt>
      <trkpt lat="43.3489" lon="-0.54759">
        <ele>137.61</ele>
        <time>2018-06-03T07:34:40Z</time>
      </trkpt>
      <trkpt lat="43.34884" lon="-0.54766">
        <ele>137.13</ele>
        <time>2018-06-03T07:34:41Z</time>
      </trkpt>
      <trkpt lat="43.34876" lon="-0.54773">
        <ele>136.64</ele>
        <time>2018-06-03T07:34:42Z</time>
      </trkpt>
      <trkpt lat="43.34868" lon="-0.5478">
        <ele>135.68</ele>
        <time>2018-06-03T07:34:43Z</time>
      </trkpt>
      <trkpt lat="43.3486" lon="-0.54786">
        <ele>134.72</ele>
        <time>2018-06-03T07:34:44Z</time>
      </trkpt>
      <trkpt lat="43.34845" lon="-0.548">
        <ele>133.28</ele>
        <time>2018-06-03T07:34:46Z</time>
      </trkpt>
      <trkpt lat="43.34839" lon="-0.54807">
        <ele>132.32</ele>
        <time>2018-06-03T07:34:47Z</time>
      </trkpt>
      <trkpt lat="43.34835" lon="-0.54813">
        <ele>131.36</ele>
        <time>2018-06-03T07:34:48Z</time>
      </trkpt>
      <trkpt lat="43.34832" lon="-0.54819">
        <ele>130.88</ele>
        <time>2018-06-03T07:34:49Z</time>
      </trkpt>
      <trkpt lat="43.3483" lon="-0.54826">
        <ele>129.92</ele>
        <time>2018-06-03T07:34:50Z</time>
      </trkpt>
      <trkpt lat="43.34828" lon="-0.54832">
        <ele>128.95</ele>
        <time>2018-06-03T07:34:51Z</time>
      </trkpt>
      <trkpt lat="43.34827" lon="-0.54839">
        <ele>128.47</ele>
        <time>2018-06-03T07:34:52Z</time>
      </trkpt>
      <trkpt lat="43.34827" lon="-0.54845">
        <ele>127.99</ele>
        <time>2018-06-03T07:34:53Z</time>
      </trkpt>
      <trkpt lat="43.34828" lon="-0.54851">
        <ele>127.51</ele>
        <time>2018-06-03T07:34:54Z</time>
      </trkpt>
      <trkpt lat="43.3483" lon="-0.54857">
        <ele>126.55</ele>
        <time>2018-06-03T07:34:55Z</time>
      </trkpt>
      <trkpt lat="43.34833" lon="-0.54863">
        <ele>126.07</ele>
        <time>2018-06-03T07:34:56Z</time>
      </trkpt>
      <trkpt lat="43.34835" lon="-0.54866">
        <ele>125.59</ele>
        <time>2018-06-03T07:34:57Z</time>
      </trkpt>
      <trkpt lat="43.34865" lon="-0.54887">
        <ele>123.67</ele>
        <time>2018-06-03T07:35:08Z</time>
      </trkpt>
      <trkpt lat="43.34914" lon="-0.54903">
        <ele>125.11</ele>
        <time>2018-06-03T07:35:21Z</time>
      </trkpt>
      <trkpt lat="43.34922" lon="-0.54907">
        <ele>125.11</ele>
        <time>2018-06-03T07:35:23Z</time>
      </trkpt>
      <trkpt lat="43.34934" lon="-0.54916">
        <ele>124.63</ele>
        <time>2018-06-03T07:35:26Z</time>
      </trkpt>
      <trkpt lat="43.34941" lon="-0.54923">
        <ele>124.63</ele>
        <time>2018-06-03T07:35:28Z</time>
      </trkpt>
      <trkpt lat="43.34986" lon="-0.55003">
        <ele>123.67</ele>
        <time>2018-06-03T07:35:39Z</time>
      </trkpt>
      <trkpt lat="43.3501" lon="-0.55036">
        <ele>123.67</ele>
        <time>2018-06-03T07:35:45Z</time>
      </trkpt>
      <trkpt lat="43.35038" lon="-0.55069">
        <ele>124.63</ele>
        <time>2018-06-03T07:35:52Z</time>
      </trkpt>
      <trkpt lat="43.35042" lon="-0.55072">
        <ele>124.63</ele>
        <time>2018-06-03T07:35:53Z</time>
      </trkpt>
      <trkpt lat="43.35087" lon="-0.55097">
        <ele>124.63</ele>
        <time>2018-06-03T07:36:04Z</time>
      </trkpt>
      <trkpt lat="43.35091" lon="-0.55099">
        <ele>124.63</ele>
        <time>2018-06-03T07:36:05Z</time>
      </trkpt>
      <trkpt lat="43.35123" lon="-0.55113">
        <ele>124.63</ele>
        <time>2018-06-03T07:36:13Z</time>
      </trkpt>
      <trkpt lat="43.35128" lon="-0.55114">
        <ele>124.63</ele>
        <time>2018-06-03T07:36:14Z</time>
      </trkpt>
      <trkpt lat="43.35173" lon="-0.55155">
        <ele>122.22</ele>
        <time>2018-06-03T07:36:27Z</time>
      </trkpt>
      <trkpt lat="43.35209" lon="-0.55213">
        <ele>124.15</ele>
        <time>2018-06-03T07:36:38Z</time>
      </trkpt>
      <trkpt lat="43.35215" lon="-0.55226">
        <ele>123.67</ele>
        <time>2018-06-03T07:36:40Z</time>
      </trkpt>
      <trkpt lat="43.35216" lon="-0.55232">
        <ele>123.67</ele>
        <time>2018-06-03T07:36:41Z</time>
      </trkpt>
      <trkpt lat="43.35219" lon="-0.55247">
        <ele>123.19</ele>
        <time>2018-06-03T07:36:44Z</time>
      </trkpt>
      <trkpt lat="43.35221" lon="-0.55248">
        <ele>123.19</ele>
        <time>2018-06-03T07:36:45Z</time>
      </trkpt>
      <trkpt lat="43.35223" lon="-0.55249">
        <ele>123.67</ele>
        <time>2018-06-03T07:36:46Z</time>
      </trkpt>
      <trkpt lat="43.35224" lon="-0.55248">
        <ele>123.67</ele>
        <time>2018-06-03T07:36:47Z</time>
      </trkpt>
      <trkpt lat="43.35224" lon="-0.55248">
        <ele>123.67</ele>
        <time>2018-06-03T07:36:48Z</time>
      </trkpt>
      <trkpt lat="43.35225" lon="-0.55247">
        <ele>123.19</ele>
        <time>2018-06-03T07:36:49Z</time>
      </trkpt>
      <trkpt lat="43.35226" lon="-0.55246">
        <ele>123.19</ele>
        <time>2018-06-03T07:36:50Z</time>
      </trkpt>
      <trkpt lat="43.35228" lon="-0.55245">
        <ele>123.19</ele>
        <time>2018-06-03T07:36:51Z</time>
      </trkpt>
      <trkpt lat="43.35229" lon="-0.55245">
        <ele>123.19</ele>
        <time>2018-06-03T07:36:52Z</time>
      </trkpt>
      <trkpt lat="43.3523" lon="-0.55244">
        <ele>123.19</ele>
        <time>2018-06-03T07:36:53Z</time>
      </trkpt>
      <trkpt lat="43.35231" lon="-0.55243">
        <ele>123.67</ele>
        <time>2018-06-03T07:36:54Z</time>
      </trkpt>
      <trkpt lat="43.35232" lon="-0.55242">
        <ele>123.67</ele>
        <time>2018-06-03T07:36:55Z</time>
      </trkpt>
      <trkpt lat="43.35232" lon="-0.55241">
        <ele>123.67</ele>
        <time>2018-06-03T07:36:56Z</time>
      </trkpt>
      <trkpt lat="43.35245" lon="-0.55221">
        <ele>127.99</ele>
        <time>2018-06-03T07:37:15Z</time>
      </trkpt>
      <trkpt lat="43.35257" lon="-0.55206">
        <ele>130.4</ele>
        <time>2018-06-03T07:37:26Z</time>
      </trkpt>
      <trkpt lat="43.35275" lon="-0.55184">
        <ele>134.72</ele>
        <time>2018-06-03T07:37:43Z</time>
      </trkpt>
      <trkpt lat="43.3529" lon="-0.55159">
        <ele>140.49</ele>
        <time>2018-06-03T07:38:02Z</time>
      </trkpt>
      <trkpt lat="43.35307" lon="-0.55134">
        <ele>143.37</ele>
        <time>2018-06-03T07:38:21Z</time>
      </trkpt>
      <trkpt lat="43.35314" lon="-0.55124">
        <ele>146.26</ele>
        <time>2018-06-03T07:38:36Z</time>
      </trkpt>
      <trkpt lat="43.35317" lon="-0.55124">
        <ele>143.37</ele>
        <time>2018-06-03T07:39:17Z</time>
      </trkpt>
      <trkpt lat="43.3532" lon="-0.55121">
        <ele>145.3</ele>
        <time>2018-06-03T07:39:33Z</time>
      </trkpt>
      <trkpt lat="43.35321" lon="-0.55115">
        <ele>146.74</ele>
        <time>2018-06-03T07:39:43Z</time>
      </trkpt>
      <trkpt lat="43.35321" lon="-0.55114">
        <ele>147.22</ele>
        <time>2018-06-03T07:39:44Z</time>
      </trkpt>
      <trkpt lat="43.35321" lon="-0.55112">
        <ele>147.22</ele>
        <time>2018-06-03T07:39:45Z</time>
      </trkpt>
      <trkpt lat="43.35321" lon="-0.55111">
        <ele>147.7</ele>
        <time>2018-06-03T07:39:46Z</time>
      </trkpt>
      <trkpt lat="43.3532" lon="-0.55109">
        <ele>147.7</ele>
        <time>2018-06-03T07:39:47Z</time>
      </trkpt>
      <trkpt lat="43.35319" lon="-0.55083">
        <ele>152.99</ele>
        <time>2018-06-03T07:40:04Z</time>
      </trkpt>
      <trkpt lat="43.35318" lon="-0.55056">
        <ele>157.31</ele>
        <time>2018-06-03T07:40:20Z</time>
      </trkpt>
      <trkpt lat="43.35317" lon="-0.55043">
        <ele>160.68</ele>
        <time>2018-06-03T07:40:37Z</time>
      </trkpt>
      <trkpt lat="43.35317" lon="-0.55029">
        <ele>161.64</ele>
        <time>2018-06-03T07:40:54Z</time>
      </trkpt>
      <trkpt lat="43.35315" lon="-0.55015">
        <ele>164.04</ele>
        <time>2018-06-03T07:41:12Z</time>
      </trkpt>
      <trkpt lat="43.35314" lon="-0.55002">
        <ele>164.52</ele>
        <time>2018-06-03T07:41:29Z</time>
      </trkpt>
      <trkpt lat="43.35312" lon="-0.54994">
        <ele>167.41</ele>
        <time>2018-06-03T07:41:51Z</time>
      </trkpt>
      <trkpt lat="43.35312" lon="-0.5498">
        <ele>170.77</ele>
        <time>2018-06-03T07:42:06Z</time>
      </trkpt>
      <trkpt lat="43.35309" lon="-0.54966">
        <ele>174.14</ele>
        <time>2018-06-03T07:42:21Z</time>
      </trkpt>
      <trkpt lat="43.35308" lon="-0.54958">
        <ele>175.58</ele>
        <time>2018-06-03T07:42:33Z</time>
      </trkpt>
      <trkpt lat="43.35304" lon="-0.54931">
        <ele>177.98</ele>
        <time>2018-06-03T07:42:51Z</time>
      </trkpt>
      <trkpt lat="43.35299" lon="-0.54905">
        <ele>182.31</ele>
        <time>2018-06-03T07:43:08Z</time>
      </trkpt>
      <trkpt lat="43.35295" lon="-0.5488">
        <ele>185.67</ele>
        <time>2018-06-03T07:43:24Z</time>
      </trkpt>
      <trkpt lat="43.35294" lon="-0.54851">
        <ele>189.04</ele>
        <time>2018-06-03T07:43:42Z</time>
      </trkpt>
      <trkpt lat="43.35295" lon="-0.54819">
        <ele>191.92</ele>
        <time>2018-06-03T07:44:01Z</time>
      </trkpt>
      <trkpt lat="43.35297" lon="-0.54795">
        <ele>195.28</ele>
        <time>2018-06-03T07:44:17Z</time>
      </trkpt>
      <trkpt lat="43.353" lon="-0.54765">
        <ele>199.13</ele>
        <time>2018-06-03T07:44:36Z</time>
      </trkpt>
      <trkpt lat="43.35301" lon="-0.54737">
        <ele>202.98</ele>
        <time>2018-06-03T07:44:53Z</time>
      </trkpt>
      <trkpt lat="43.35299" lon="-0.54713">
        <ele>204.9</ele>
        <time>2018-06-03T07:45:08Z</time>
      </trkpt>
      <trkpt lat="43.35293" lon="-0.54689">
        <ele>205.86</ele>
        <time>2018-06-03T07:45:20Z</time>
      </trkpt>
      <trkpt lat="43.35288" lon="-0.54676">
        <ele>205.38</ele>
        <time>2018-06-03T07:45:26Z</time>
      </trkpt>
      <trkpt lat="43.35288" lon="-0.54635">
        <ele>207.3</ele>
        <time>2018-06-03T07:45:41Z</time>
      </trkpt>
      <trkpt lat="43.35284" lon="-0.54584">
        <ele>211.15</ele>
        <time>2018-06-03T07:45:58Z</time>
      </trkpt>
      <trkpt lat="43.35281" lon="-0.54534">
        <ele>213.07</ele>
        <time>2018-06-03T07:46:11Z</time>
      </trkpt>
      <trkpt lat="43.35284" lon="-0.54467">
        <ele>212.59</ele>
        <time>2018-06-03T07:46:29Z</time>
      </trkpt>
      <trkpt lat="43.35287" lon="-0.54408">
        <ele>211.15</ele>
        <time>2018-06-03T07:46:46Z</time>
      </trkpt>
      <trkpt lat="43.35291" lon="-0.54339">
        <ele>209.22</ele>
        <time>2018-06-03T07:47:03Z</time>
      </trkpt>
      <trkpt lat="43.35281" lon="-0.54267">
        <ele>207.78</ele>
        <time>2018-06-03T07:47:16Z</time>
      </trkpt>
      <trkpt lat="43.35267" lon="-0.54188">
        <ele>205.86</ele>
        <time>2018-06-03T07:47:33Z</time>
      </trkpt>
      <trkpt lat="43.35245" lon="-0.54126">
        <ele>205.86</ele>
        <time>2018-06-03T07:47:49Z</time>
      </trkpt>
      <trkpt lat="43.35236" lon="-0.54098">
        <ele>210.19</ele>
        <time>2018-06-03T07:48:01Z</time>
      </trkpt>
      <trkpt lat="43.35218" lon="-0.54087">
        <ele>212.59</ele>
        <time>2018-06-03T07:48:12Z</time>
      </trkpt>
      <trkpt lat="43.35185" lon="-0.54079">
        <ele>213.07</ele>
        <time>2018-06-03T07:48:22Z</time>
      </trkpt>
      <trkpt lat="43.35145" lon="-0.54058">
        <ele>217.4</ele>
        <time>2018-06-03T07:48:37Z</time>
      </trkpt>
      <trkpt lat="43.35106" lon="-0.54038">
        <ele>219.32</ele>
        <time>2018-06-03T07:48:50Z</time>
      </trkpt>
      <trkpt lat="43.35076" lon="-0.53992">
        <ele>225.57</ele>
        <time>2018-06-03T07:49:04Z</time>
      </trkpt>
      <trkpt lat="43.35063" lon="-0.53936">
        <ele>233.74</ele>
        <time>2018-06-03T07:49:16Z</time>
      </trkpt>
      <trkpt lat="43.35051" lon="-0.53882">
        <ele>242.39</ele>
        <time>2018-06-03T07:49:27Z</time>
      </trkpt>
      <trkpt lat="43.35044" lon="-0.53851">
        <ele>245.75</ele>
        <time>2018-06-03T07:49:31Z</time>
      </trkpt>
      <trkpt lat="43.35036" lon="-0.53799">
        <ele>248.16</ele>
        <time>2018-06-03T07:49:36Z</time>
      </trkpt>
      <trkpt lat="43.3503" lon="-0.53773">
        <ele>243.83</ele>
        <time>2018-06-03T07:49:39Z</time>
      </trkpt>
      <trkpt lat="43.35022" lon="-0.5376">
        <ele>235.18</ele>
        <time>2018-06-03T07:49:42Z</time>
      </trkpt>
      <trkpt lat="43.3502" lon="-0.5376">
        <ele>231.81</ele>
        <time>2018-06-03T07:49:43Z</time>
      </trkpt>
      <trkpt lat="43.35017" lon="-0.5376">
        <ele>229.41</ele>
        <time>2018-06-03T07:49:44Z</time>
      </trkpt>
      <trkpt lat="43.35013" lon="-0.53762">
        <ele>227.01</ele>
        <time>2018-06-03T07:49:45Z</time>
      </trkpt>
      <trkpt lat="43.34977" lon="-0.53788">
        <ele>202.49</ele>
        <time>2018-06-03T07:49:54Z</time>
      </trkpt>
      <trkpt lat="43.34974" lon="-0.53794">
        <ele>200.57</ele>
        <time>2018-06-03T07:49:55Z</time>
      </trkpt>
      <trkpt lat="43.34971" lon="-0.53799">
        <ele>199.13</ele>
        <time>2018-06-03T07:49:56Z</time>
      </trkpt>
      <trkpt lat="43.3497" lon="-0.53807">
        <ele>197.69</ele>
        <time>2018-06-03T07:49:57Z</time>
      </trkpt>
      <trkpt lat="43.3497" lon="-0.53815">
        <ele>196.73</ele>
        <time>2018-06-03T07:49:58Z</time>
      </trkpt>
      <trkpt lat="43.3497" lon="-0.53825">
        <ele>195.28</ele>
        <time>2018-06-03T07:49:59Z</time>
      </trkpt>
      <trkpt lat="43.34975" lon="-0.53924">
        <ele>188.08</ele>
        <time>2018-06-03T07:50:11Z</time>
      </trkpt>
      <trkpt lat="43.34998" lon="-0.54017">
        <ele>186.63</ele>
        <time>2018-06-03T07:50:25Z</time>
      </trkpt>
      <trkpt lat="43.34997" lon="-0.54025">
        <ele>186.63</ele>
        <time>2018-06-03T07:50:26Z</time>
      </trkpt>
      <trkpt lat="43.34996" lon="-0.54033">
        <ele>186.63</ele>
        <time>2018-06-03T07:50:27Z</time>
      </trkpt>
      <trkpt lat="43.3499" lon="-0.54057">
        <ele>186.15</ele>
        <time>2018-06-03T07:50:30Z</time>
      </trkpt>
      <trkpt lat="43.34988" lon="-0.54065">
        <ele>186.15</ele>
        <time>2018-06-03T07:50:31Z</time>
      </trkpt>
      <trkpt lat="43.34987" lon="-0.54073">
        <ele>186.15</ele>
        <time>2018-06-03T07:50:32Z</time>
      </trkpt>
      <trkpt lat="43.34988" lon="-0.54155">
        <ele>183.75</ele>
        <time>2018-06-03T07:50:41Z</time>
      </trkpt>
      <trkpt lat="43.3499" lon="-0.54162">
        <ele>183.27</ele>
        <time>2018-06-03T07:50:42Z</time>
      </trkpt>
      <trkpt lat="43.34992" lon="-0.54168">
        <ele>182.31</ele>
        <time>2018-06-03T07:50:43Z</time>
      </trkpt>
      <trkpt lat="43.35005" lon="-0.54212">
        <ele>176.54</ele>
        <time>2018-06-03T07:50:54Z</time>
      </trkpt>
      <trkpt lat="43.35007" lon="-0.54219">
        <ele>176.06</ele>
        <time>2018-06-03T07:50:55Z</time>
      </trkpt>
      <trkpt lat="43.35006" lon="-0.54226">
        <ele>175.58</ele>
        <time>2018-06-03T07:50:56Z</time>
      </trkpt>
      <trkpt lat="43.35004" lon="-0.54234">
        <ele>174.62</ele>
        <time>2018-06-03T07:50:57Z</time>
      </trkpt>
      <trkpt lat="43.35" lon="-0.54241">
        <ele>173.66</ele>
        <time>2018-06-03T07:50:58Z</time>
      </trkpt>
      <trkpt lat="43.34995" lon="-0.54249">
        <ele>172.69</ele>
        <time>2018-06-03T07:50:59Z</time>
      </trkpt>
      <trkpt lat="43.34912" lon="-0.54356">
        <ele>161.16</ele>
        <time>2018-06-03T07:51:11Z</time>
      </trkpt>
      <trkpt lat="43.34905" lon="-0.54363">
        <ele>160.2</ele>
        <time>2018-06-03T07:51:12Z</time>
      </trkpt>
      <trkpt lat="43.34897" lon="-0.54368">
        <ele>159.24</ele>
        <time>2018-06-03T07:51:13Z</time>
      </trkpt>
      <trkpt lat="43.34889" lon="-0.54371">
        <ele>158.75</ele>
        <time>2018-06-03T07:51:14Z</time>
      </trkpt>
      <trkpt lat="43.34882" lon="-0.54373">
        <ele>158.27</ele>
        <time>2018-06-03T07:51:15Z</time>
      </trkpt>
      <trkpt lat="43.34866" lon="-0.54378">
        <ele>156.83</ele>
        <time>2018-06-03T07:51:17Z</time>
      </trkpt>
      <trkpt lat="43.34858" lon="-0.54382">
        <ele>156.35</ele>
        <time>2018-06-03T07:51:18Z</time>
      </trkpt>
      <trkpt lat="43.3485" lon="-0.54388">
        <ele>155.87</ele>
        <time>2018-06-03T07:51:19Z</time>
      </trkpt>
      <trkpt lat="43.34843" lon="-0.54394">
        <ele>155.39</ele>
        <time>2018-06-03T07:51:20Z</time>
      </trkpt>
      <trkpt lat="43.34836" lon="-0.544">
        <ele>155.39</ele>
        <time>2018-06-03T07:51:21Z</time>
      </trkpt>
      <trkpt lat="43.3483" lon="-0.54407">
        <ele>154.91</ele>
        <time>2018-06-03T07:51:22Z</time>
      </trkpt>
      <trkpt lat="43.3476" lon="-0.54488">
        <ele>150.58</ele>
        <time>2018-06-03T07:51:34Z</time>
      </trkpt>
      <trkpt lat="43.3468" lon="-0.54587">
        <ele>143.37</ele>
        <time>2018-06-03T07:51:46Z</time>
      </trkpt>
      <trkpt lat="43.34657" lon="-0.54621">
        <ele>137.61</ele>
        <time>2018-06-03T07:51:54Z</time>
      </trkpt>
      <trkpt lat="43.34656" lon="-0.5462">
        <ele>137.13</ele>
        <time>2018-06-03T07:51:56Z</time>
      </trkpt>
      <trkpt lat="43.34656" lon="-0.54617">
        <ele>137.13</ele>
        <time>2018-06-03T07:51:57Z</time>
      </trkpt>
      <trkpt lat="43.34655" lon="-0.54614">
        <ele>137.13</ele>
        <time>2018-06-03T07:51:58Z</time>
      </trkpt>
      <trkpt lat="43.34653" lon="-0.54557">
        <ele>140.01</ele>
        <time>2018-06-03T07:52:12Z</time>
      </trkpt>
      <trkpt lat="43.34651" lon="-0.54501">
        <ele>142.89</ele>
        <time>2018-06-03T07:52:24Z</time>
      </trkpt>
      <trkpt lat="43.34658" lon="-0.54432">
        <ele>148.18</ele>
        <time>2018-06-03T07:52:35Z</time>
      </trkpt>
      <trkpt lat="43.34661" lon="-0.54415">
        <ele>151.06</ele>
        <time>2018-06-03T07:52:39Z</time>
      </trkpt>
      <trkpt lat="43.34663" lon="-0.54411">
        <ele>152.03</ele>
        <time>2018-06-03T07:52:40Z</time>
      </trkpt>
      <trkpt lat="43.34665" lon="-0.54407">
        <ele>152.99</ele>
        <time>2018-06-03T07:52:41Z</time>
      </trkpt>
      <trkpt lat="43.34677" lon="-0.54368">
        <ele>166.93</ele>
        <time>2018-06-03T07:52:57Z</time>
      </trkpt>
      <trkpt lat="43.34687" lon="-0.54336">
        <ele>178.46</ele>
        <time>2018-06-03T07:53:14Z</time>
      </trkpt>
      <trkpt lat="43.34696" lon="-0.54307">
        <ele>186.63</ele>
        <time>2018-06-03T07:53:30Z</time>
      </trkpt>
      <trkpt lat="43.34701" lon="-0.54271">
        <ele>190</ele>
        <time>2018-06-03T07:53:46Z</time>
      </trkpt>
      <trkpt lat="43.34699" lon="-0.54255">
        <ele>188.08</ele>
        <time>2018-06-03T07:54:01Z</time>
      </trkpt>
      <trkpt lat="43.34696" lon="-0.54249">
        <ele>185.67</ele>
        <time>2018-06-03T07:54:17Z</time>
      </trkpt>
      <trkpt lat="43.34682" lon="-0.5425">
        <ele>185.67</ele>
        <time>2018-06-03T07:54:28Z</time>
      </trkpt>
      <trkpt lat="43.3468" lon="-0.5425">
        <ele>185.67</ele>
        <time>2018-06-03T07:54:29Z</time>
      </trkpt>
      <trkpt lat="43.34679" lon="-0.54251">
        <ele>185.67</ele>
        <time>2018-06-03T07:54:30Z</time>
      </trkpt>
      <trkpt lat="43.34659" lon="-0.54261">
        <ele>185.67</ele>
        <time>2018-06-03T07:54:47Z</time>
      </trkpt>
      <trkpt lat="43.34631" lon="-0.54269">
        <ele>184.71</ele>
        <time>2018-06-03T07:55:04Z</time>
      </trkpt>
      <trkpt lat="43.34601" lon="-0.54269">
        <ele>181.83</ele>
        <time>2018-06-03T07:55:20Z</time>
      </trkpt>
      <trkpt lat="43.34583" lon="-0.54265">
        <ele>180.38</ele>
        <time>2018-06-03T07:55:29Z</time>
      </trkpt>
      <trkpt lat="43.3458" lon="-0.54263">
        <ele>180.38</ele>
        <time>2018-06-03T07:55:30Z</time>
      </trkpt>
      <trkpt lat="43.34576" lon="-0.54261">
        <ele>179.9</ele>
        <time>2018-06-03T07:55:31Z</time>
      </trkpt>
      <trkpt lat="43.34559" lon="-0.54236">
        <ele>182.79</ele>
        <time>2018-06-03T07:55:46Z</time>
      </trkpt>
      <trkpt lat="43.3456" lon="-0.54227">
        <ele>184.71</ele>
        <time>2018-06-03T07:55:51Z</time>
      </trkpt>
      <trkpt lat="43.34561" lon="-0.54226">
        <ele>185.19</ele>
        <time>2018-06-03T07:55:52Z</time>
      </trkpt>
      <trkpt lat="43.34562" lon="-0.54224">
        <ele>185.67</ele>
        <time>2018-06-03T07:55:53Z</time>
      </trkpt>
      <trkpt lat="43.34562" lon="-0.54222">
        <ele>186.15</ele>
        <time>2018-06-03T07:55:54Z</time>
      </trkpt>
      <trkpt lat="43.34563" lon="-0.54221">
        <ele>186.15</ele>
        <time>2018-06-03T07:55:55Z</time>
      </trkpt>
      <trkpt lat="43.34564" lon="-0.54219">
        <ele>186.15</ele>
        <time>2018-06-03T07:55:56Z</time>
      </trkpt>
      <trkpt lat="43.34565" lon="-0.54217">
        <ele>186.63</ele>
        <time>2018-06-03T07:55:57Z</time>
      </trkpt>
      <trkpt lat="43.34569" lon="-0.5419">
        <ele>191.44</ele>
        <time>2018-06-03T07:56:13Z</time>
      </trkpt>
      <trkpt lat="43.34559" lon="-0.54175">
        <ele>195.28</ele>
        <time>2018-06-03T07:56:29Z</time>
      </trkpt>
      <trkpt lat="43.34542" lon="-0.54161">
        <ele>198.65</ele>
        <time>2018-06-03T07:56:46Z</time>
      </trkpt>
      <trkpt lat="43.34528" lon="-0.54152">
        <ele>197.69</ele>
        <time>2018-06-03T07:56:59Z</time>
      </trkpt>
      <trkpt lat="43.34527" lon="-0.54151">
        <ele>197.69</ele>
        <time>2018-06-03T07:57:00Z</time>
      </trkpt>
      <trkpt lat="43.34504" lon="-0.54143">
        <ele>197.21</ele>
        <time>2018-06-03T07:57:15Z</time>
      </trkpt>
      <trkpt lat="43.34479" lon="-0.54121">
        <ele>196.25</ele>
        <time>2018-06-03T07:57:33Z</time>
      </trkpt>
      <trkpt lat="43.34463" lon="-0.541">
        <ele>198.17</ele>
        <time>2018-06-03T07:57:49Z</time>
      </trkpt>
      <trkpt lat="43.34462" lon="-0.54098">
        <ele>198.65</ele>
        <time>2018-06-03T07:57:50Z</time>
      </trkpt>
      <trkpt lat="43.34469" lon="-0.54088">
        <ele>202.01</ele>
        <time>2018-06-03T07:57:59Z</time>
      </trkpt>
      <trkpt lat="43.34482" lon="-0.54069">
        <ele>206.82</ele>
        <time>2018-06-03T07:58:13Z</time>
      </trkpt>
      <trkpt lat="43.3449" lon="-0.5406">
        <ele>210.19</ele>
        <time>2018-06-03T07:58:20Z</time>
      </trkpt>
      <trkpt lat="43.34502" lon="-0.54042">
        <ele>214.03</ele>
        <time>2018-06-03T07:58:36Z</time>
      </trkpt>
      <trkpt lat="43.34512" lon="-0.54017">
        <ele>216.91</ele>
        <time>2018-06-03T07:58:55Z</time>
      </trkpt>
      <trkpt lat="43.34515" lon="-0.53993">
        <ele>218.36</ele>
        <time>2018-06-03T07:59:12Z</time>
      </trkpt>
      <trkpt lat="43.34516" lon="-0.53965">
        <ele>222.68</ele>
        <time>2018-06-03T07:59:28Z</time>
      </trkpt>
      <trkpt lat="43.34515" lon="-0.53928">
        <ele>226.53</ele>
        <time>2018-06-03T07:59:46Z</time>
      </trkpt>
      <trkpt lat="43.34509" lon="-0.53907">
        <ele>230.85</ele>
        <time>2018-06-03T07:59:59Z</time>
      </trkpt>
      <trkpt lat="43.34505" lon="-0.53872">
        <ele>232.3</ele>
        <time>2018-06-03T08:00:12Z</time>
      </trkpt>
      <trkpt lat="43.34506" lon="-0.5387">
        <ele>232.78</ele>
        <time>2018-06-03T08:00:13Z</time>
      </trkpt>
      <trkpt lat="43.34515" lon="-0.53829">
        <ele>238.06</ele>
        <time>2018-06-03T08:00:31Z</time>
      </trkpt>
      <trkpt lat="43.34527" lon="-0.53781">
        <ele>238.54</ele>
        <time>2018-06-03T08:00:47Z</time>
      </trkpt>
      <trkpt lat="43.3454" lon="-0.53736">
        <ele>236.62</ele>
        <time>2018-06-03T08:01:08Z</time>
      </trkpt>
      <trkpt lat="43.34547" lon="-0.5371">
        <ele>248.16</ele>
        <time>2018-06-03T08:01:27Z</time>
      </trkpt>
      <trkpt lat="43.34552" lon="-0.53686">
        <ele>256.33</ele>
        <time>2018-06-03T08:01:43Z</time>
      </trkpt>
      <trkpt lat="43.34557" lon="-0.53651">
        <ele>262.58</ele>
        <time>2018-06-03T08:02:01Z</time>
      </trkpt>
      <trkpt lat="43.34568" lon="-0.53612">
        <ele>267.86</ele>
        <time>2018-06-03T08:02:21Z</time>
      </trkpt>
      <trkpt lat="43.34574" lon="-0.53566">
        <ele>266.9</ele>
        <time>2018-06-03T08:02:39Z</time>
      </trkpt>
      <trkpt lat="43.34576" lon="-0.53522">
        <ele>264.02</ele>
        <time>2018-06-03T08:02:57Z</time>
      </trkpt>
      <trkpt lat="43.34575" lon="-0.53515">
        <ele>264.02</ele>
        <time>2018-06-03T08:03:00Z</time>
      </trkpt>
      <trkpt lat="43.34575" lon="-0.53513">
        <ele>264.02</ele>
        <time>2018-06-03T08:03:01Z</time>
      </trkpt>
      <trkpt lat="43.34576" lon="-0.53475">
        <ele>260.65</ele>
        <time>2018-06-03T08:03:17Z</time>
      </trkpt>
      <trkpt lat="43.34575" lon="-0.53446">
        <ele>260.65</ele>
        <time>2018-06-03T08:03:31Z</time>
      </trkpt>
      <trkpt lat="43.3457" lon="-0.53413">
        <ele>265.94</ele>
        <time>2018-06-03T08:03:49Z</time>
      </trkpt>
      <trkpt lat="43.34567" lon="-0.53386">
        <ele>269.79</ele>
        <time>2018-06-03T08:04:04Z</time>
      </trkpt>
      <trkpt lat="43.34562" lon="-0.53345">
        <ele>267.38</ele>
        <time>2018-06-03T08:04:18Z</time>
      </trkpt>
      <trkpt lat="43.3456" lon="-0.53297">
        <ele>262.58</ele>
        <time>2018-06-03T08:04:31Z</time>
      </trkpt>
      <trkpt lat="43.34559" lon="-0.53294">
        <ele>262.58</ele>
        <time>2018-06-03T08:04:32Z</time>
      </trkpt>
      <trkpt lat="43.34558" lon="-0.53292">
        <ele>262.58</ele>
        <time>2018-06-03T08:04:33Z</time>
      </trkpt>
      <trkpt lat="43.34558" lon="-0.5329">
        <ele>262.58</ele>
        <time>2018-06-03T08:04:34Z</time>
      </trkpt>
      <trkpt lat="43.34557" lon="-0.53288">
        <ele>262.58</ele>
        <time>2018-06-03T08:04:35Z</time>
      </trkpt>
      <trkpt lat="43.34552" lon="-0.53253">
        <ele>266.42</ele>
        <time>2018-06-03T08:04:49Z</time>
      </trkpt>
      <trkpt lat="43.34553" lon="-0.53207">
        <ele>267.86</ele>
        <time>2018-06-03T08:05:04Z</time>
      </trkpt>
      <trkpt lat="43.34553" lon="-0.53182">
        <ele>266.42</ele>
        <time>2018-06-03T08:05:11Z</time>
      </trkpt>
      <trkpt lat="43.34548" lon="-0.53143">
        <ele>267.38</ele>
        <time>2018-06-03T08:05:27Z</time>
      </trkpt>
      <trkpt lat="43.34543" lon="-0.53109">
        <ele>275.07</ele>
        <time>2018-06-03T08:05:44Z</time>
      </trkpt>
      <trkpt lat="43.34541" lon="-0.53097">
        <ele>276.52</ele>
        <time>2018-06-03T08:05:49Z</time>
      </trkpt>
      <trkpt lat="43.34532" lon="-0.53065">
        <ele>277.48</ele>
        <time>2018-06-03T08:06:04Z</time>
      </trkpt>
      <trkpt lat="43.34509" lon="-0.5303">
        <ele>278.44</ele>
        <time>2018-06-03T08:06:16Z</time>
      </trkpt>
      <trkpt lat="43.34483" lon="-0.52989">
        <ele>277.48</ele>
        <time>2018-06-03T08:06:29Z</time>
      </trkpt>
      <trkpt lat="43.34459" lon="-0.52956">
        <ele>273.63</ele>
        <time>2018-06-03T08:06:39Z</time>
      </trkpt>
      <trkpt lat="43.34447" lon="-0.52934">
        <ele>272.19</ele>
        <time>2018-06-03T08:06:43Z</time>
      </trkpt>
      <trkpt lat="43.34445" lon="-0.52928">
        <ele>271.71</ele>
        <time>2018-06-03T08:06:44Z</time>
      </trkpt>
      <trkpt lat="43.34421" lon="-0.52867">
        <ele>271.23</ele>
        <time>2018-06-03T08:06:57Z</time>
      </trkpt>
      <trkpt lat="43.34415" lon="-0.52854">
        <ele>269.79</ele>
        <time>2018-06-03T08:07:03Z</time>
      </trkpt>
      <trkpt lat="43.34399" lon="-0.52849">
        <ele>267.86</ele>
        <time>2018-06-03T08:07:16Z</time>
      </trkpt>
      <trkpt lat="43.34398" lon="-0.52849">
        <ele>267.38</ele>
        <time>2018-06-03T08:07:18Z</time>
      </trkpt>
      <trkpt lat="43.34394" lon="-0.52865">
        <ele>267.86</ele>
        <time>2018-06-03T08:07:28Z</time>
      </trkpt>
      <trkpt lat="43.34387" lon="-0.52872">
        <ele>269.79</ele>
        <time>2018-06-03T08:07:32Z</time>
      </trkpt>
      <trkpt lat="43.34362" lon="-0.52916">
        <ele>274.59</ele>
        <time>2018-06-03T08:07:45Z</time>
      </trkpt>
      <trkpt lat="43.34338" lon="-0.52937">
        <ele>275.56</ele>
        <time>2018-06-03T08:07:51Z</time>
      </trkpt>
      <trkpt lat="43.34331" lon="-0.52953">
        <ele>276.04</ele>
        <time>2018-06-03T08:07:55Z</time>
      </trkpt>
      <trkpt lat="43.34317" lon="-0.52988">
        <ele>275.07</ele>
        <time>2018-06-03T08:08:00Z</time>
      </trkpt>
      <trkpt lat="43.34307" lon="-0.53008">
        <ele>275.07</ele>
        <time>2018-06-03T08:08:03Z</time>
      </trkpt>
      <trkpt lat="43.34302" lon="-0.53014">
        <ele>275.07</ele>
        <time>2018-06-03T08:08:04Z</time>
      </trkpt>
      <trkpt lat="43.34265" lon="-0.53042">
        <ele>272.19</ele>
        <time>2018-06-03T08:08:13Z</time>
      </trkpt>
      <trkpt lat="43.34247" lon="-0.53051">
        <ele>266.9</ele>
        <time>2018-06-03T08:08:20Z</time>
      </trkpt>
      <trkpt lat="43.34243" lon="-0.53057">
        <ele>266.42</ele>
        <time>2018-06-03T08:08:22Z</time>
      </trkpt>
      <trkpt lat="43.34237" lon="-0.53066">
        <ele>266.42</ele>
        <time>2018-06-03T08:08:24Z</time>
      </trkpt>
      <trkpt lat="43.34197" lon="-0.53137">
        <ele>266.9</ele>
        <time>2018-06-03T08:08:33Z</time>
      </trkpt>
      <trkpt lat="43.34194" lon="-0.53145">
        <ele>266.42</ele>
        <time>2018-06-03T08:08:34Z</time>
      </trkpt>
      <trkpt lat="43.34191" lon="-0.53152">
        <ele>265.94</ele>
        <time>2018-06-03T08:08:35Z</time>
      </trkpt>
      <trkpt lat="43.34168" lon="-0.53174">
        <ele>255.85</ele>
        <time>2018-06-03T08:08:43Z</time>
      </trkpt>
      <trkpt lat="43.341" lon="-0.53175">
        <ele>238.06</ele>
        <time>2018-06-03T08:08:56Z</time>
      </trkpt>
      <trkpt lat="43.34012" lon="-0.53172">
        <ele>221.72</ele>
        <time>2018-06-03T08:09:12Z</time>
      </trkpt>
      <trkpt lat="43.34002" lon="-0.53169">
        <ele>218.84</ele>
        <time>2018-06-03T08:09:15Z</time>
      </trkpt>
      <trkpt lat="43.34" lon="-0.5317">
        <ele>217.88</ele>
        <time>2018-06-03T08:09:16Z</time>
      </trkpt>
      <trkpt lat="43.33999" lon="-0.53172">
        <ele>216.91</ele>
        <time>2018-06-03T08:09:17Z</time>
      </trkpt>
      <trkpt lat="43.33997" lon="-0.53176">
        <ele>215.95</ele>
        <time>2018-06-03T08:09:19Z</time>
      </trkpt>
      <trkpt lat="43.33981" lon="-0.53219">
        <ele>210.19</ele>
        <time>2018-06-03T08:09:30Z</time>
      </trkpt>
      <trkpt lat="43.33951" lon="-0.53226">
        <ele>203.94</ele>
        <time>2018-06-03T08:09:41Z</time>
      </trkpt>
      <trkpt lat="43.33923" lon="-0.53213">
        <ele>199.13</ele>
        <time>2018-06-03T08:09:52Z</time>
      </trkpt>
      <trkpt lat="43.33915" lon="-0.53207">
        <ele>198.65</ele>
        <time>2018-06-03T08:09:56Z</time>
      </trkpt>
      <trkpt lat="43.33906" lon="-0.53216">
        <ele>198.65</ele>
        <time>2018-06-03T08:10:01Z</time>
      </trkpt>
      <trkpt lat="43.33891" lon="-0.53216">
        <ele>198.17</ele>
        <time>2018-06-03T08:10:05Z</time>
      </trkpt>
      <trkpt lat="43.33871" lon="-0.53209">
        <ele>197.69</ele>
        <time>2018-06-03T08:10:13Z</time>
      </trkpt>
      <trkpt lat="43.33861" lon="-0.53197">
        <ele>198.17</ele>
        <time>2018-06-03T08:10:21Z</time>
      </trkpt>
      <trkpt lat="43.33857" lon="-0.53196">
        <ele>198.17</ele>
        <time>2018-06-03T08:10:23Z</time>
      </trkpt>
      <trkpt lat="43.33847" lon="-0.53192">
        <ele>198.17</ele>
        <time>2018-06-03T08:10:27Z</time>
      </trkpt>
      <trkpt lat="43.33842" lon="-0.53186">
        <ele>198.65</ele>
        <time>2018-06-03T08:10:31Z</time>
      </trkpt>
      <trkpt lat="43.33826" lon="-0.53187">
        <ele>198.17</ele>
        <time>2018-06-03T08:10:36Z</time>
      </trkpt>
      <trkpt lat="43.33792" lon="-0.53199">
        <ele>195.28</ele>
        <time>2018-06-03T08:10:46Z</time>
      </trkpt>
      <trkpt lat="43.33772" lon="-0.53192">
        <ele>193.36</ele>
        <time>2018-06-03T08:10:52Z</time>
      </trkpt>
      <trkpt lat="43.33726" lon="-0.53172">
        <ele>188.08</ele>
        <time>2018-06-03T08:11:04Z</time>
      </trkpt>
      <trkpt lat="43.3371" lon="-0.5318">
        <ele>186.63</ele>
        <time>2018-06-03T08:11:08Z</time>
      </trkpt>
      <trkpt lat="43.3367" lon="-0.53194">
        <ele>181.35</ele>
        <time>2018-06-03T08:11:19Z</time>
      </trkpt>
      <trkpt lat="43.33661" lon="-0.53201">
        <ele>178.94</ele>
        <time>2018-06-03T08:11:22Z</time>
      </trkpt>
      <trkpt lat="43.3361" lon="-0.5319">
        <ele>171.25</ele>
        <time>2018-06-03T08:11:32Z</time>
      </trkpt>
      <trkpt lat="43.33605" lon="-0.53189">
        <ele>170.29</ele>
        <time>2018-06-03T08:11:33Z</time>
      </trkpt>
      <trkpt lat="43.33593" lon="-0.53197">
        <ele>168.37</ele>
        <time>2018-06-03T08:11:37Z</time>
      </trkpt>
      <trkpt lat="43.33557" lon="-0.53225">
        <ele>165.48</ele>
        <time>2018-06-03T08:11:49Z</time>
      </trkpt>
      <trkpt lat="43.33525" lon="-0.53238">
        <ele>162.12</ele>
        <time>2018-06-03T08:12:02Z</time>
      </trkpt>
      <trkpt lat="43.33514" lon="-0.53231">
        <ele>158.27</ele>
        <time>2018-06-03T08:12:08Z</time>
      </trkpt>
      <trkpt lat="43.33519" lon="-0.53223">
        <ele>154.91</ele>
        <time>2018-06-03T08:12:26Z</time>
      </trkpt>
      <trkpt lat="43.33538" lon="-0.53222">
        <ele>152.03</ele>
        <time>2018-06-03T08:12:42Z</time>
      </trkpt>
      <trkpt lat="43.33557" lon="-0.53226">
        <ele>152.51</ele>
        <time>2018-06-03T08:12:56Z</time>
      </trkpt>
      <trkpt lat="43.33576" lon="-0.53231">
        <ele>159.24</ele>
        <time>2018-06-03T08:13:10Z</time>
      </trkpt>
      <trkpt lat="43.33596" lon="-0.53235">
        <ele>162.6</ele>
        <time>2018-06-03T08:13:27Z</time>
      </trkpt>
      <trkpt lat="43.33624" lon="-0.53242">
        <ele>165.96</ele>
        <time>2018-06-03T08:13:48Z</time>
      </trkpt>
      <trkpt lat="43.33629" lon="-0.53243">
        <ele>166.45</ele>
        <time>2018-06-03T08:13:51Z</time>
      </trkpt>
      <trkpt lat="43.33655" lon="-0.53256">
        <ele>170.77</ele>
        <time>2018-06-03T08:14:08Z</time>
      </trkpt>
      <trkpt lat="43.33678" lon="-0.53276">
        <ele>176.06</ele>
        <time>2018-06-03T08:14:26Z</time>
      </trkpt>
      <trkpt lat="43.33701" lon="-0.53294">
        <ele>179.42</ele>
        <time>2018-06-03T08:14:44Z</time>
      </trkpt>
      <trkpt lat="43.33721" lon="-0.53298">
        <ele>181.35</ele>
        <time>2018-06-03T08:15:02Z</time>
      </trkpt>
      <trkpt lat="43.33744" lon="-0.53296">
        <ele>184.23</ele>
        <time>2018-06-03T08:15:21Z</time>
      </trkpt>
      <trkpt lat="43.33767" lon="-0.53301">
        <ele>183.27</ele>
        <time>2018-06-03T08:15:36Z</time>
      </trkpt>
      <trkpt lat="43.33793" lon="-0.53301">
        <ele>186.15</ele>
        <time>2018-06-03T08:15:54Z</time>
      </trkpt>
      <trkpt lat="43.33816" lon="-0.53298">
        <ele>191.44</ele>
        <time>2018-06-03T08:16:11Z</time>
      </trkpt>
      <trkpt lat="43.33836" lon="-0.53297">
        <ele>195.28</ele>
        <time>2018-06-03T08:16:29Z</time>
      </trkpt>
      <trkpt lat="43.33862" lon="-0.53296">
        <ele>196.25</ele>
        <time>2018-06-03T08:16:47Z</time>
      </trkpt>
      <trkpt lat="43.33884" lon="-0.53298">
        <ele>198.17</ele>
        <time>2018-06-03T08:17:04Z</time>
      </trkpt>
      <trkpt lat="43.33908" lon="-0.53308">
        <ele>199.13</ele>
        <time>2018-06-03T08:17:21Z</time>
      </trkpt>
      <trkpt lat="43.33932" lon="-0.5331">
        <ele>199.61</ele>
        <time>2018-06-03T08:17:39Z</time>
      </trkpt>
      <trkpt lat="43.33954" lon="-0.53301">
        <ele>198.65</ele>
        <time>2018-06-03T08:17:54Z</time>
      </trkpt>
      <trkpt lat="43.33977" lon="-0.53298">
        <ele>200.09</ele>
        <time>2018-06-03T08:18:09Z</time>
      </trkpt>
      <trkpt lat="43.33998" lon="-0.53298">
        <ele>206.34</ele>
        <time>2018-06-03T08:18:24Z</time>
      </trkpt>
      <trkpt lat="43.34022" lon="-0.53295">
        <ele>212.59</ele>
        <time>2018-06-03T08:18:42Z</time>
      </trkpt>
      <trkpt lat="43.3404" lon="-0.53285">
        <ele>220.28</ele>
        <time>2018-06-03T08:19:00Z</time>
      </trkpt>
      <trkpt lat="43.3406" lon="-0.53268">
        <ele>227.97</ele>
        <time>2018-06-03T08:19:19Z</time>
      </trkpt>
      <trkpt lat="43.34077" lon="-0.53253">
        <ele>231.33</ele>
        <time>2018-06-03T08:19:36Z</time>
      </trkpt>
      <trkpt lat="43.34101" lon="-0.53236">
        <ele>232.78</ele>
        <time>2018-06-03T08:19:54Z</time>
      </trkpt>
      <trkpt lat="43.34113" lon="-0.53205">
        <ele>233.26</ele>
        <time>2018-06-03T08:20:14Z</time>
      </trkpt>
      <trkpt lat="43.34116" lon="-0.53196">
        <ele>233.26</ele>
        <time>2018-06-03T08:20:18Z</time>
      </trkpt>
      <trkpt lat="43.3414" lon="-0.5318">
        <ele>233.26</ele>
        <time>2018-06-03T08:20:32Z</time>
      </trkpt>
      <trkpt lat="43.34151" lon="-0.53176">
        <ele>233.26</ele>
        <time>2018-06-03T08:20:39Z</time>
      </trkpt>
      <trkpt lat="43.34171" lon="-0.53168">
        <ele>230.37</ele>
        <time>2018-06-03T08:20:56Z</time>
      </trkpt>
      <trkpt lat="43.34173" lon="-0.53167">
        <ele>230.37</ele>
        <time>2018-06-03T08:20:57Z</time>
      </trkpt>
      <trkpt lat="43.34204" lon="-0.5313">
        <ele>230.85</ele>
        <time>2018-06-03T08:21:13Z</time>
      </trkpt>
      <trkpt lat="43.34233" lon="-0.53095">
        <ele>231.33</ele>
        <time>2018-06-03T08:21:27Z</time>
      </trkpt>
      <trkpt lat="43.34269" lon="-0.53048">
        <ele>234.22</ele>
        <time>2018-06-03T08:21:44Z</time>
      </trkpt>
      <trkpt lat="43.34325" lon="-0.53017">
        <ele>239.51</ele>
        <time>2018-06-03T08:21:57Z</time>
      </trkpt>
      <trkpt lat="43.3433" lon="-0.53015">
        <ele>239.99</ele>
        <time>2018-06-03T08:21:58Z</time>
      </trkpt>
      <trkpt lat="43.34336" lon="-0.53014">
        <ele>240.47</ele>
        <time>2018-06-03T08:21:59Z</time>
      </trkpt>
      <trkpt lat="43.34342" lon="-0.53014">
        <ele>240.95</ele>
        <time>2018-06-03T08:22:00Z</time>
      </trkpt>
      <trkpt lat="43.34347" lon="-0.53016">
        <ele>241.91</ele>
        <time>2018-06-03T08:22:01Z</time>
      </trkpt>
      <trkpt lat="43.34352" lon="-0.53016">
        <ele>242.39</ele>
        <time>2018-06-03T08:22:02Z</time>
      </trkpt>
      <trkpt lat="43.34355" lon="-0.53017">
        <ele>242.87</ele>
        <time>2018-06-03T08:22:03Z</time>
      </trkpt>
      <trkpt lat="43.34386" lon="-0.53031">
        <ele>250.08</ele>
        <time>2018-06-03T08:22:14Z</time>
      </trkpt>
      <trkpt lat="43.34408" lon="-0.53077">
        <ele>255.37</ele>
        <time>2018-06-03T08:22:28Z</time>
      </trkpt>
      <trkpt lat="43.34413" lon="-0.53127">
        <ele>258.25</ele>
        <time>2018-06-03T08:22:39Z</time>
      </trkpt>
      <trkpt lat="43.34425" lon="-0.5317">
        <ele>259.21</ele>
        <time>2018-06-03T08:22:51Z</time>
      </trkpt>
      <trkpt lat="43.34446" lon="-0.53226">
        <ele>261.62</ele>
        <time>2018-06-03T08:23:05Z</time>
      </trkpt>
      <trkpt lat="43.34468" lon="-0.53269">
        <ele>263.06</ele>
        <time>2018-06-03T08:23:17Z</time>
      </trkpt>
      <trkpt lat="43.34477" lon="-0.53324">
        <ele>259.69</ele>
        <time>2018-06-03T08:23:27Z</time>
      </trkpt>
      <trkpt lat="43.34477" lon="-0.53341">
        <ele>258.73</ele>
        <time>2018-06-03T08:23:29Z</time>
      </trkpt>
      <trkpt lat="43.34478" lon="-0.5335">
        <ele>258.25</ele>
        <time>2018-06-03T08:23:30Z</time>
      </trkpt>
      <trkpt lat="43.3448" lon="-0.53359">
        <ele>257.77</ele>
        <time>2018-06-03T08:23:31Z</time>
      </trkpt>
      <trkpt lat="43.34513" lon="-0.53441">
        <ele>257.29</ele>
        <time>2018-06-03T08:23:41Z</time>
      </trkpt>
      <trkpt lat="43.34523" lon="-0.53478">
        <ele>255.85</ele>
        <time>2018-06-03T08:23:47Z</time>
      </trkpt>
      <trkpt lat="43.34526" lon="-0.53573">
        <ele>253.93</ele>
        <time>2018-06-03T08:24:02Z</time>
      </trkpt>
      <trkpt lat="43.3453" lon="-0.53628">
        <ele>246.72</ele>
        <time>2018-06-03T08:24:14Z</time>
      </trkpt>
      <trkpt lat="43.34528" lon="-0.53726">
        <ele>238.54</ele>
        <time>2018-06-03T08:24:26Z</time>
      </trkpt>
      <trkpt lat="43.34528" lon="-0.53758">
        <ele>235.18</ele>
        <time>2018-06-03T08:24:29Z</time>
      </trkpt>
      <trkpt lat="43.34528" lon="-0.5377">
        <ele>233.74</ele>
        <time>2018-06-03T08:24:30Z</time>
      </trkpt>
      <trkpt lat="43.34526" lon="-0.53779">
        <ele>232.78</ele>
        <time>2018-06-03T08:24:31Z</time>
      </trkpt>
      <trkpt lat="43.34525" lon="-0.53789">
        <ele>232.3</ele>
        <time>2018-06-03T08:24:32Z</time>
      </trkpt>
      <trkpt lat="43.34523" lon="-0.53798">
        <ele>231.33</ele>
        <time>2018-06-03T08:24:33Z</time>
      </trkpt>
      <trkpt lat="43.34522" lon="-0.53808">
        <ele>230.85</ele>
        <time>2018-06-03T08:24:34Z</time>
      </trkpt>
      <trkpt lat="43.34519" lon="-0.53843">
        <ele>227.49</ele>
        <time>2018-06-03T08:24:38Z</time>
      </trkpt>
      <trkpt lat="43.34519" lon="-0.5385">
        <ele>227.01</ele>
        <time>2018-06-03T08:24:39Z</time>
      </trkpt>
      <trkpt lat="43.34535" lon="-0.53941">
        <ele>223.64</ele>
        <time>2018-06-03T08:24:50Z</time>
      </trkpt>
      <trkpt lat="43.34535" lon="-0.53953">
        <ele>223.64</ele>
        <time>2018-06-03T08:24:51Z</time>
      </trkpt>
      <trkpt lat="43.34525" lon="-0.54044">
        <ele>222.68</ele>
        <time>2018-06-03T08:25:00Z</time>
      </trkpt>
      <trkpt lat="43.34521" lon="-0.5405">
        <ele>222.2</ele>
        <time>2018-06-03T08:25:01Z</time>
      </trkpt>
      <trkpt lat="43.34518" lon="-0.54057">
        <ele>222.2</ele>
        <time>2018-06-03T08:25:02Z</time>
      </trkpt>
      <trkpt lat="43.34514" lon="-0.54064">
        <ele>221.24</ele>
        <time>2018-06-03T08:25:03Z</time>
      </trkpt>
      <trkpt lat="43.3451" lon="-0.5407">
        <ele>220.28</ele>
        <time>2018-06-03T08:25:04Z</time>
      </trkpt>
      <trkpt lat="43.34505" lon="-0.54075">
        <ele>219.8</ele>
        <time>2018-06-03T08:25:05Z</time>
      </trkpt>
      <trkpt lat="43.34498" lon="-0.54085">
        <ele>218.84</ele>
        <time>2018-06-03T08:25:08Z</time>
      </trkpt>
      <trkpt lat="43.34499" lon="-0.5409">
        <ele>217.88</ele>
        <time>2018-06-03T08:25:10Z</time>
      </trkpt>
      <trkpt lat="43.34495" lon="-0.54102">
        <ele>208.74</ele>
        <time>2018-06-03T08:25:21Z</time>
      </trkpt>
      <trkpt lat="43.34526" lon="-0.54116">
        <ele>204.42</ele>
        <time>2018-06-03T08:25:30Z</time>
      </trkpt>
      <trkpt lat="43.34569" lon="-0.54144">
        <ele>202.49</ele>
        <time>2018-06-03T08:25:38Z</time>
      </trkpt>
      <trkpt lat="43.34571" lon="-0.5415">
        <ele>202.01</ele>
        <time>2018-06-03T08:25:39Z</time>
      </trkpt>
      <trkpt lat="43.34573" lon="-0.54156">
        <ele>201.53</ele>
        <time>2018-06-03T08:25:40Z</time>
      </trkpt>
      <trkpt lat="43.34573" lon="-0.54163">
        <ele>201.05</ele>
        <time>2018-06-03T08:25:41Z</time>
      </trkpt>
      <trkpt lat="43.34572" lon="-0.54169">
        <ele>200.57</ele>
        <time>2018-06-03T08:25:42Z</time>
      </trkpt>
      <trkpt lat="43.34571" lon="-0.54175">
        <ele>200.09</ele>
        <time>2018-06-03T08:25:43Z</time>
      </trkpt>
      <trkpt lat="43.34569" lon="-0.54182">
        <ele>199.61</ele>
        <time>2018-06-03T08:25:44Z</time>
      </trkpt>
      <trkpt lat="43.34564" lon="-0.54204">
        <ele>197.69</ele>
        <time>2018-06-03T08:25:47Z</time>
      </trkpt>
      <trkpt lat="43.34563" lon="-0.54213">
        <ele>196.73</ele>
        <time>2018-06-03T08:25:48Z</time>
      </trkpt>
      <trkpt lat="43.34563" lon="-0.54221">
        <ele>196.25</ele>
        <time>2018-06-03T08:25:49Z</time>
      </trkpt>
      <trkpt lat="43.34563" lon="-0.54227">
        <ele>195.77</ele>
        <time>2018-06-03T08:25:50Z</time>
      </trkpt>
      <trkpt lat="43.34564" lon="-0.54233">
        <ele>194.8</ele>
        <time>2018-06-03T08:25:51Z</time>
      </trkpt>
      <trkpt lat="43.34568" lon="-0.54238">
        <ele>194.32</ele>
        <time>2018-06-03T08:25:52Z</time>
      </trkpt>
      <trkpt lat="43.34571" lon="-0.5424">
        <ele>193.84</ele>
        <time>2018-06-03T08:25:53Z</time>
      </trkpt>
      <trkpt lat="43.34576" lon="-0.54242">
        <ele>193.36</ele>
        <time>2018-06-03T08:25:54Z</time>
      </trkpt>
      <trkpt lat="43.3458" lon="-0.54244">
        <ele>192.88</ele>
        <time>2018-06-03T08:25:55Z</time>
      </trkpt>
      <trkpt lat="43.34585" lon="-0.54244">
        <ele>192.4</ele>
        <time>2018-06-03T08:25:56Z</time>
      </trkpt>
      <trkpt lat="43.34591" lon="-0.54243">
        <ele>191.92</ele>
        <time>2018-06-03T08:25:57Z</time>
      </trkpt>
      <trkpt lat="43.34597" lon="-0.54242">
        <ele>191.44</ele>
        <time>2018-06-03T08:25:58Z</time>
      </trkpt>
      <trkpt lat="43.34604" lon="-0.5424">
        <ele>190.96</ele>
        <time>2018-06-03T08:25:59Z</time>
      </trkpt>
      <trkpt lat="43.34679" lon="-0.54205">
        <ele>187.11</ele>
        <time>2018-06-03T08:26:09Z</time>
      </trkpt>
      <trkpt lat="43.34692" lon="-0.542">
        <ele>185.67</ele>
        <time>2018-06-03T08:26:12Z</time>
      </trkpt>
      <trkpt lat="43.34696" lon="-0.5421">
        <ele>183.75</ele>
        <time>2018-06-03T08:26:14Z</time>
      </trkpt>
      <trkpt lat="43.34697" lon="-0.54218">
        <ele>182.79</ele>
        <time>2018-06-03T08:26:15Z</time>
      </trkpt>
      <trkpt lat="43.34697" lon="-0.54225">
        <ele>182.31</ele>
        <time>2018-06-03T08:26:16Z</time>
      </trkpt>
      <trkpt lat="43.34696" lon="-0.54242">
        <ele>181.35</ele>
        <time>2018-06-03T08:26:18Z</time>
      </trkpt>
      <trkpt lat="43.34678" lon="-0.54352">
        <ele>172.21</ele>
        <time>2018-06-03T08:26:28Z</time>
      </trkpt>
      <trkpt lat="43.34674" lon="-0.54377">
        <ele>169.33</ele>
        <time>2018-06-03T08:26:31Z</time>
      </trkpt>
      <trkpt lat="43.34674" lon="-0.54384">
        <ele>168.37</ele>
        <time>2018-06-03T08:26:32Z</time>
      </trkpt>
      <trkpt lat="43.34674" lon="-0.5439">
        <ele>167.41</ele>
        <time>2018-06-03T08:26:33Z</time>
      </trkpt>
      <trkpt lat="43.34674" lon="-0.54397">
        <ele>166.93</ele>
        <time>2018-06-03T08:26:34Z</time>
      </trkpt>
      <trkpt lat="43.34674" lon="-0.54405">
        <ele>165.96</ele>
        <time>2018-06-03T08:26:35Z</time>
      </trkpt>
      <trkpt lat="43.34668" lon="-0.54472">
        <ele>159.24</ele>
        <time>2018-06-03T08:26:46Z</time>
      </trkpt>
      <trkpt lat="43.3466" lon="-0.54547">
        <ele>154.91</ele>
        <time>2018-06-03T08:27:00Z</time>
      </trkpt>
      <trkpt lat="43.34655" lon="-0.54632">
        <ele>147.22</ele>
        <time>2018-06-03T08:27:14Z</time>
      </trkpt>
      <trkpt lat="43.34667" lon="-0.54671">
        <ele>142.41</ele>
        <time>2018-06-03T08:27:24Z</time>
      </trkpt>
      <trkpt lat="43.34716" lon="-0.54715">
        <ele>141.93</ele>
        <time>2018-06-03T08:27:34Z</time>
      </trkpt>
      <trkpt lat="43.34736" lon="-0.54733">
        <ele>141.93</ele>
        <time>2018-06-03T08:27:38Z</time>
      </trkpt>
      <trkpt lat="43.34794" lon="-0.54809">
        <ele>142.41</ele>
        <time>2018-06-03T08:27:50Z</time>
      </trkpt>
      <trkpt lat="43.34838" lon="-0.54867">
        <ele>136.16</ele>
        <time>2018-06-03T08:27:58Z</time>
      </trkpt>
      <trkpt lat="43.34841" lon="-0.54871">
        <ele>136.16</ele>
        <time>2018-06-03T08:27:59Z</time>
      </trkpt>
      <trkpt lat="43.34845" lon="-0.54876">
        <ele>136.16</ele>
        <time>2018-06-03T08:28:00Z</time>
      </trkpt>
      <trkpt lat="43.34855" lon="-0.54884">
        <ele>135.68</ele>
        <time>2018-06-03T08:28:02Z</time>
      </trkpt>
      <trkpt lat="43.3486" lon="-0.54886">
        <ele>135.68</ele>
        <time>2018-06-03T08:28:03Z</time>
      </trkpt>
      <trkpt lat="43.34865" lon="-0.54888">
        <ele>135.68</ele>
        <time>2018-06-03T08:28:04Z</time>
      </trkpt>
      <trkpt lat="43.34892" lon="-0.54893">
        <ele>135.68</ele>
        <time>2018-06-03T08:28:09Z</time>
      </trkpt>
      <trkpt lat="43.34938" lon="-0.54916">
        <ele>133.76</ele>
        <time>2018-06-03T08:28:22Z</time>
      </trkpt>
      <trkpt lat="43.34944" lon="-0.54924">
        <ele>134.72</ele>
        <time>2018-06-03T08:28:27Z</time>
      </trkpt>
      <trkpt lat="43.35" lon="-0.55003">
        <ele>139.05</ele>
        <time>2018-06-03T08:28:37Z</time>
      </trkpt>
      <trkpt lat="43.35025" lon="-0.55043">
        <ele>137.13</ele>
        <time>2018-06-03T08:28:41Z</time>
      </trkpt>
      <trkpt lat="43.35031" lon="-0.55052">
        <ele>137.13</ele>
        <time>2018-06-03T08:28:42Z</time>
      </trkpt>
      <trkpt lat="43.35037" lon="-0.55059">
        <ele>136.64</ele>
        <time>2018-06-03T08:28:43Z</time>
      </trkpt>
      <trkpt lat="43.35112" lon="-0.55105">
        <ele>135.68</ele>
        <time>2018-06-03T08:28:58Z</time>
      </trkpt>
      <trkpt lat="43.35147" lon="-0.55123">
        <ele>135.68</ele>
        <time>2018-06-03T08:29:05Z</time>
      </trkpt>
      <trkpt lat="43.35152" lon="-0.55127">
        <ele>135.68</ele>
        <time>2018-06-03T08:29:06Z</time>
      </trkpt>
      <trkpt lat="43.35156" lon="-0.55131">
        <ele>135.68</ele>
        <time>2018-06-03T08:29:07Z</time>
      </trkpt>
      <trkpt lat="43.3516" lon="-0.55135">
        <ele>135.68</ele>
        <time>2018-06-03T08:29:08Z</time>
      </trkpt>
      <trkpt lat="43.35164" lon="-0.5514">
        <ele>136.16</ele>
        <time>2018-06-03T08:29:09Z</time>
      </trkpt>
      <trkpt lat="43.35168" lon="-0.55146">
        <ele>136.16</ele>
        <time>2018-06-03T08:29:10Z</time>
      </trkpt>
      <trkpt lat="43.35171" lon="-0.55151">
        <ele>136.16</ele>
        <time>2018-06-03T08:29:11Z</time>
      </trkpt>
      <trkpt lat="43.35207" lon="-0.55215">
        <ele>133.28</ele>
        <time>2018-06-03T08:29:21Z</time>
      </trkpt>
      <trkpt lat="43.35214" lon="-0.55237">
        <ele>132.32</ele>
        <time>2018-06-03T08:29:24Z</time>
      </trkpt>
      <trkpt lat="43.35216" lon="-0.55244">
        <ele>131.84</ele>
        <time>2018-06-03T08:29:25Z</time>
      </trkpt>
      <trkpt lat="43.35219" lon="-0.55264">
        <ele>130.88</ele>
        <time>2018-06-03T08:29:28Z</time>
      </trkpt>
      <trkpt lat="43.35221" lon="-0.55324">
        <ele>127.03</ele>
        <time>2018-06-03T08:29:40Z</time>
      </trkpt>
      <trkpt lat="43.3522" lon="-0.55327">
        <ele>125.11</ele>
        <time>2018-06-03T08:29:51Z</time>
      </trkpt>
      <trkpt lat="43.3522" lon="-0.55328">
        <ele>124.63</ele>
        <time>2018-06-03T08:29:59Z</time>
      </trkpt>
    </trkseg>
  </trk>
</gpx>